AFR346 LFPG-CYUL
Flight info
| Callsign | AFR346 |
|---|---|
| Flight time | 6h 38m |
| Altitude | 36000 |
| Route | ELCOB UT300 SENLO DCT JSY DCT LIZAD DCT LESLU DCT VENER/M082F360 DCT 55N020W 5430N03000W 5230N04000W 51N050W DCT ALLRY/N0477F360 DCT TAFFY DCT KEBIG ROCKT3 |
| Aircraft | B77W/H-SDE1E2E3FGHIJ2J3J4J5M1RWXY/LB1D1 |
Departure
| Time | 2026-05-08 17:27 |
|---|---|
| Airport | Charles de Gaulle International Airport (LFPG) |
Arrival
| Time | 2026-05-09 00:05 |
|---|---|
| Airport | Montreal / Pierre Elliott Trudeau International Airport (CYUL) |
| Time | Latitude | Longitude | Altitude | Speed | Heading |
|---|---|---|---|---|---|
| 2026-05-08 16:47 | 49.00761 | 2.58580 | 359 ft | 0 kts | 266° |
| 2026-05-08 17:11 | 49.00762 | 2.58619 | 361 ft | 0 kts | 267° |
| 2026-05-08 17:11 | 49.00763 | 2.58632 | 361 ft | 1 kts | 267° |
| 2026-05-08 17:11 | 49.00763 | 2.58678 | 359 ft | 11 kts | 290° |
| 2026-05-08 17:11 | 49.00763 | 2.58700 | 366 ft | 3 kts | 342° |
| 2026-05-08 17:12 | 49.00782 | 2.58690 | 362 ft | 3 kts | 342° |
| 2026-05-08 17:12 | 49.00809 | 2.58675 | 366 ft | 7 kts | 339° |
| 2026-05-08 17:12 | 49.00866 | 2.58642 | 366 ft | 9 kts | 339° |
| 2026-05-08 17:12 | 49.00917 | 2.58583 | 365 ft | 10 kts | 301° |
| 2026-05-08 17:13 | 49.00927 | 2.58483 | 365 ft | 10 kts | 267° |
| 2026-05-08 17:13 | 49.00924 | 2.58380 | 368 ft | 10 kts | 267° |
| 2026-05-08 17:13 | 49.00935 | 2.58280 | 365 ft | 10 kts | 295° |
| 2026-05-08 17:13 | 49.00988 | 2.58222 | 364 ft | 10 kts | 353° |
| 2026-05-08 17:14 | 49.01057 | 2.58216 | 359 ft | 10 kts | 358° |
| 2026-05-08 17:14 | 49.01127 | 2.58212 | 367 ft | 10 kts | 358° |
| 2026-05-08 17:14 | 49.01197 | 2.58205 | 363 ft | 10 kts | 356° |
| 2026-05-08 17:14 | 49.01266 | 2.58198 | 366 ft | 10 kts | 356° |
| 2026-05-08 17:15 | 49.01335 | 2.58188 | 362 ft | 10 kts | 354° |
| 2026-05-08 17:15 | 49.01405 | 2.58176 | 362 ft | 10 kts | 354° |
| 2026-05-08 17:15 | 49.01474 | 2.58165 | 367 ft | 10 kts | 354° |
| 2026-05-08 17:15 | 49.01543 | 2.58155 | 359 ft | 10 kts | 355° |
| 2026-05-08 17:16 | 49.01612 | 2.58148 | 366 ft | 10 kts | 356° |
| 2026-05-08 17:16 | 49.01686 | 2.58141 | 363 ft | 13 kts | 356° |
| 2026-05-08 17:16 | 49.01797 | 2.58128 | 361 ft | 17 kts | 354° |
| 2026-05-08 17:16 | 49.01913 | 2.58089 | 365 ft | 17 kts | 341° |
| 2026-05-08 17:17 | 49.02014 | 2.57995 | 367 ft | 17 kts | 313° |
| 2026-05-08 17:17 | 49.02074 | 2.57839 | 367 ft | 17 kts | 288° |
| 2026-05-08 17:17 | 49.02088 | 2.57660 | 362 ft | 17 kts | 268° |
| 2026-05-08 17:17 | 49.02078 | 2.57478 | 365 ft | 17 kts | 266° |
| 2026-05-08 17:18 | 49.02070 | 2.57298 | 360 ft | 17 kts | 266° |
| 2026-05-08 17:18 | 49.02059 | 2.57117 | 363 ft | 17 kts | 264° |
| 2026-05-08 17:18 | 49.02049 | 2.56936 | 359 ft | 17 kts | 268° |
| 2026-05-08 17:18 | 49.02042 | 2.56754 | 364 ft | 17 kts | 266° |
| 2026-05-08 17:19 | 49.02034 | 2.56573 | 364 ft | 17 kts | 266° |
| 2026-05-08 17:19 | 49.02033 | 2.56391 | 367 ft | 17 kts | 284° |
| 2026-05-08 17:19 | 49.02092 | 2.56234 | 368 ft | 17 kts | 290° |
| 2026-05-08 17:19 | 49.02094 | 2.56052 | 359 ft | 17 kts | 266° |
| 2026-05-08 17:20 | 49.02085 | 2.55871 | 360 ft | 17 kts | 264° |
| 2026-05-08 17:20 | 49.02074 | 2.55691 | 367 ft | 17 kts | 265° |
| 2026-05-08 17:20 | 49.02063 | 2.55510 | 365 ft | 17 kts | 265° |
| 2026-05-08 17:20 | 49.02053 | 2.55329 | 359 ft | 17 kts | 265° |
| 2026-05-08 17:21 | 49.02044 | 2.55148 | 365 ft | 17 kts | 266° |
| 2026-05-08 17:21 | 49.02035 | 2.54966 | 361 ft | 17 kts | 266° |
| 2026-05-08 17:21 | 49.02027 | 2.54780 | 364 ft | 19 kts | 266° |
| 2026-05-08 17:21 | 49.02015 | 2.54560 | 366 ft | 22 kts | 265° |
| 2026-05-08 17:22 | 49.02000 | 2.54297 | 365 ft | 26 kts | 263° |
| 2026-05-08 17:22 | 49.01908 | 2.54062 | 366 ft | 26 kts | 245° |
| 2026-05-08 17:22 | 49.01883 | 2.53788 | 361 ft | 26 kts | 265° |
| 2026-05-08 17:22 | 49.01868 | 2.53510 | 363 ft | 26 kts | 265° |
| 2026-05-08 17:23 | 49.01853 | 2.53237 | 361 ft | 26 kts | 265° |
| 2026-05-08 17:23 | 49.01840 | 2.52960 | 359 ft | 26 kts | 265° |
| 2026-05-08 17:23 | 49.01826 | 2.52683 | 364 ft | 26 kts | 266° |
| 2026-05-08 17:23 | 49.01814 | 2.52419 | 365 ft | 19 kts | 266° |
| 2026-05-08 17:24 | 49.01810 | 2.52217 | 361 ft | 19 kts | 281° |
| 2026-05-08 17:24 | 49.01912 | 2.52122 | 365 ft | 18 kts | 354° |
| 2026-05-08 17:24 | 49.01945 | 2.52117 | 366 ft | 0 kts | 354° |
| 2026-05-08 17:25 | 49.01954 | 2.52116 | 366 ft | 5 kts | 354° |
| 2026-05-08 17:26 | 49.02020 | 2.52107 | 363 ft | 12 kts | 359° |
| 2026-05-08 17:26 | 49.02093 | 2.52154 | 364 ft | 12 kts | 49° |
| 2026-05-08 17:26 | 49.02126 | 2.52452 | 360 ft | 69 kts | 85° |
| 2026-05-08 17:26 | 49.02194 | 2.53715 | 360 ft | 172 kts | 84° |
| 2026-05-08 17:27 | 49.02300 | 2.55794 | 1163 ft | 199 kts | 84° |
| 2026-05-08 17:27 | 49.02402 | 2.57843 | 2837 ft | 198 kts | 84° |
| 2026-05-08 17:27 | 49.02522 | 2.60097 | 3169 ft | 229 kts | 84° |
| 2026-05-08 17:27 | 49.02664 | 2.62664 | 3587 ft | 252 kts | 84° |
| 2026-05-08 17:28 | 49.02815 | 2.65350 | 4513 ft | 257 kts | 85° |
| 2026-05-08 17:28 | 49.02963 | 2.68108 | 5332 ft | 265 kts | 85° |
| 2026-05-08 17:28 | 49.03108 | 2.70909 | 6179 ft | 271 kts | 85° |
| 2026-05-08 17:28 | 49.03445 | 2.73733 | 6899 ft | 277 kts | 65° |
| 2026-05-08 17:29 | 49.04670 | 2.76013 | 7580 ft | 284 kts | 33° |
| 2026-05-08 17:29 | 49.06505 | 2.77115 | 8442 ft | 286 kts | 6° |
| 2026-05-08 17:29 | 49.08492 | 2.76888 | 9278 ft | 287 kts | 339° |
| 2026-05-08 17:29 | 49.10187 | 2.75395 | 10068 ft | 287 kts | 312° |
| 2026-05-08 17:30 | 49.11288 | 2.72855 | 10633 ft | 295 kts | 287° |
| 2026-05-08 17:30 | 49.11557 | 2.69648 | 10837 ft | 318 kts | 263° |
| 2026-05-08 17:30 | 49.10999 | 2.66262 | 11036 ft | 342 kts | 246° |
| 2026-05-08 17:30 | 49.09878 | 2.62943 | 11353 ft | 358 kts | 242° |
| 2026-05-08 17:31 | 49.08763 | 2.59475 | 12052 ft | 369 kts | 245° |
| 2026-05-08 17:31 | 49.07743 | 2.55898 | 12895 ft | 375 kts | 247° |
| 2026-05-08 17:31 | 49.06729 | 2.52205 | 13839 ft | 379 kts | 247° |
| 2026-05-08 17:31 | 49.05706 | 2.48479 | 14666 ft | 383 kts | 247° |
| 2026-05-08 17:32 | 49.04666 | 2.44718 | 15555 ft | 385 kts | 247° |
| 2026-05-08 17:32 | 49.03617 | 2.40948 | 16466 ft | 388 kts | 247° |
| 2026-05-08 17:32 | 49.02582 | 2.37142 | 17245 ft | 389 kts | 251° |
| 2026-05-08 17:32 | 49.02069 | 2.33056 | 17855 ft | 395 kts | 270° |
| 2026-05-08 17:33 | 49.02199 | 2.28898 | 18424 ft | 401 kts | 272° |
| 2026-05-08 17:33 | 49.02311 | 2.24626 | 19110 ft | 404 kts | 272° |
| 2026-05-08 17:33 | 49.02387 | 2.20331 | 19939 ft | 405 kts | 272° |
| 2026-05-08 17:33 | 49.02447 | 2.16023 | 20667 ft | 408 kts | 272° |
| 2026-05-08 17:34 | 49.02500 | 2.11662 | 21321 ft | 413 kts | 272° |
| 2026-05-08 17:34 | 49.02549 | 2.07315 | 21972 ft | 418 kts | 272° |
| 2026-05-08 17:34 | 49.02598 | 2.02860 | 22646 ft | 421 kts | 273° |
| 2026-05-08 17:34 | 49.02645 | 1.98371 | 23313 ft | 425 kts | 273° |
| 2026-05-08 17:35 | 49.02692 | 1.93842 | 23909 ft | 429 kts | 273° |
| 2026-05-08 17:35 | 49.02737 | 1.89272 | 24451 ft | 432 kts | 273° |
| 2026-05-08 17:35 | 49.02781 | 1.84678 | 25009 ft | 434 kts | 273° |
| 2026-05-08 17:35 | 49.02823 | 1.80059 | 25568 ft | 437 kts | 273° |
| 2026-05-08 17:36 | 49.02864 | 1.75412 | 26093 ft | 440 kts | 272° |
| 2026-05-08 17:36 | 49.02904 | 1.70775 | 26446 ft | 446 kts | 272° |
| 2026-05-08 17:36 | 49.02941 | 1.66020 | 26887 ft | 450 kts | 272° |
| 2026-05-08 17:36 | 49.02977 | 1.61242 | 27436 ft | 451 kts | 272° |
| 2026-05-08 17:37 | 49.03011 | 1.56449 | 27985 ft | 453 kts | 272° |
| 2026-05-08 17:37 | 49.03044 | 1.51620 | 28455 ft | 455 kts | 272° |
| 2026-05-08 17:37 | 49.03075 | 1.46759 | 28892 ft | 458 kts | 272° |
| 2026-05-08 17:37 | 49.03104 | 1.41887 | 29293 ft | 461 kts | 272° |
| 2026-05-08 17:38 | 49.03130 | 1.37042 | 29683 ft | 463 kts | 272° |
| 2026-05-08 17:38 | 49.03156 | 1.32109 | 30057 ft | 465 kts | 272° |
| 2026-05-08 17:38 | 49.03180 | 1.27155 | 30283 ft | 469 kts | 271° |
| 2026-05-08 17:38 | 49.03201 | 1.22161 | 30514 ft | 472 kts | 271° |
| 2026-05-08 17:39 | 49.03269 | 1.17159 | 30821 ft | 472 kts | 273° |
| 2026-05-08 17:39 | 49.03412 | 1.12219 | 31234 ft | 470 kts | 274° |
| 2026-05-08 17:39 | 49.03586 | 1.07260 | 31677 ft | 467 kts | 274° |
| 2026-05-08 17:39 | 49.03763 | 1.02317 | 32074 ft | 466 kts | 274° |
| 2026-05-08 17:40 | 49.03932 | 0.97386 | 32438 ft | 465 kts | 274° |
| 2026-05-08 17:40 | 49.04089 | 0.92459 | 32783 ft | 465 kts | 274° |
| 2026-05-08 17:40 | 49.04237 | 0.87545 | 33129 ft | 464 kts | 273° |
| 2026-05-08 17:40 | 49.04379 | 0.82625 | 33415 ft | 464 kts | 273° |
| 2026-05-08 17:41 | 49.04514 | 0.77749 | 33728 ft | 464 kts | 273° |
| 2026-05-08 17:41 | 49.04649 | 0.72821 | 33984 ft | 465 kts | 273° |
| 2026-05-08 17:41 | 49.04913 | 0.62919 | 34022 ft | 467 kts | 272° |
| 2026-05-08 17:42 | 49.05167 | 0.53098 | 34025 ft | 461 kts | 272° |
| 2026-05-08 17:42 | 49.05411 | 0.43400 | 34032 ft | 460 kts | 272° |
| 2026-05-08 17:43 | 49.05648 | 0.33623 | 34028 ft | 461 kts | 272° |
| 2026-05-08 17:43 | 49.05878 | 0.23826 | 34026 ft | 462 kts | 272° |
| 2026-05-08 17:44 | 49.06099 | 0.14061 | 34025 ft | 463 kts | 272° |
| 2026-05-08 17:44 | 49.06313 | 0.04211 | 34022 ft | 464 kts | 271° |
| 2026-05-08 17:45 | 49.06518 | -0.05579 | 34023 ft | 465 kts | 271° |
| 2026-05-08 17:45 | 49.06717 | -0.15463 | 34020 ft | 466 kts | 271° |
| 2026-05-08 17:46 | 49.06908 | -0.25363 | 34021 ft | 466 kts | 271° |
| 2026-05-08 17:46 | 49.07090 | -0.35261 | 34024 ft | 466 kts | 271° |
| 2026-05-08 17:47 | 49.07265 | -0.45091 | 34021 ft | 466 kts | 271° |
| 2026-05-08 17:47 | 49.07405 | -0.53315 | 34020 ft | 466 kts | 271° |
| 2026-05-08 17:48 | 49.07591 | -0.64831 | 34022 ft | 466 kts | 271° |
| 2026-05-08 17:48 | 49.07741 | -0.74727 | 34018 ft | 466 kts | 270° |
| 2026-05-08 17:49 | 49.07883 | -0.84595 | 34020 ft | 465 kts | 270° |
| 2026-05-08 17:49 | 49.08017 | -0.94470 | 34012 ft | 465 kts | 270° |
| 2026-05-08 17:50 | 49.08143 | -1.04295 | 34014 ft | 465 kts | 270° |
| 2026-05-08 17:50 | 49.08283 | -1.14207 | 34011 ft | 465 kts | 272° |
| 2026-05-08 17:51 | 49.09208 | -1.23929 | 34010 ft | 467 kts | 282° |
| 2026-05-08 17:51 | 49.10814 | -1.33541 | 34018 ft | 467 kts | 282° |
| 2026-05-08 17:52 | 49.12137 | -1.41555 | 34007 ft | 468 kts | 282° |
| 2026-05-08 17:53 | 49.14478 | -1.56100 | 34007 ft | 469 kts | 282° |
| 2026-05-08 17:53 | 49.16011 | -1.65744 | 34006 ft | 470 kts | 282° |
| 2026-05-08 17:54 | 49.17550 | -1.75482 | 34011 ft | 470 kts | 282° |
| 2026-05-08 17:54 | 49.19084 | -1.85239 | 34007 ft | 472 kts | 281° |
| 2026-05-08 17:55 | 49.20601 | -1.94948 | 33999 ft | 472 kts | 281° |
| 2026-05-08 17:55 | 49.22125 | -2.04748 | 34009 ft | 473 kts | 281° |
| 2026-05-08 17:56 | 49.23747 | -2.14484 | 34013 ft | 474 kts | 283° |
| 2026-05-08 17:56 | 49.25447 | -2.24238 | 34007 ft | 474 kts | 282° |
| 2026-05-08 17:57 | 49.27126 | -2.33966 | 34005 ft | 475 kts | 282° |
| 2026-05-08 17:57 | 49.28791 | -2.43771 | 34006 ft | 475 kts | 282° |
| 2026-05-08 17:58 | 49.30440 | -2.53568 | 33983 ft | 475 kts | 282° |
| 2026-05-08 17:58 | 49.32079 | -2.63366 | 33982 ft | 475 kts | 282° |
| 2026-05-08 17:59 | 49.33712 | -2.73180 | 33998 ft | 475 kts | 282° |
| 2026-05-08 17:59 | 49.35328 | -2.82945 | 34016 ft | 475 kts | 282° |
| 2026-05-08 18:00 | 49.36950 | -2.92801 | 34008 ft | 475 kts | 282° |
| 2026-05-08 18:00 | 49.39367 | -3.07600 | 34004 ft | 476 kts | 281° |
| 2026-05-08 18:01 | 49.40964 | -3.17450 | 34009 ft | 477 kts | 281° |
| 2026-05-08 18:01 | 49.42553 | -3.27309 | 34009 ft | 478 kts | 281° |
| 2026-05-08 18:02 | 49.44144 | -3.37240 | 34007 ft | 478 kts | 281° |
| 2026-05-08 18:02 | 49.45728 | -3.47187 | 34006 ft | 478 kts | 281° |
| 2026-05-08 18:03 | 49.47293 | -3.57067 | 34018 ft | 478 kts | 281° |
| 2026-05-08 18:03 | 49.48864 | -3.67051 | 34018 ft | 479 kts | 281° |
| 2026-05-08 18:04 | 49.50418 | -3.76993 | 34015 ft | 480 kts | 281° |
| 2026-05-08 18:04 | 49.51973 | -3.86999 | 34010 ft | 480 kts | 280° |
| 2026-05-08 18:05 | 49.53520 | -3.97009 | 34005 ft | 481 kts | 280° |
| 2026-05-08 18:05 | 49.55057 | -4.07023 | 34017 ft | 481 kts | 280° |
| 2026-05-08 18:06 | 49.56596 | -4.17105 | 34010 ft | 483 kts | 280° |
| 2026-05-08 18:06 | 49.58152 | -4.27130 | 34007 ft | 485 kts | 283° |
| 2026-05-08 18:07 | 49.60653 | -4.36874 | 34011 ft | 490 kts | 294° |
| 2026-05-08 18:07 | 49.64155 | -4.45892 | 34013 ft | 493 kts | 300° |
| 2026-05-08 18:08 | 49.67880 | -4.54818 | 34023 ft | 494 kts | 299° |
| 2026-05-08 18:08 | 49.71559 | -4.63716 | 34015 ft | 493 kts | 299° |
| 2026-05-08 18:09 | 49.75222 | -4.72694 | 34013 ft | 492 kts | 298° |
| 2026-05-08 18:09 | 49.78859 | -4.81678 | 34022 ft | 491 kts | 298° |
| 2026-05-08 18:10 | 49.82478 | -4.90655 | 34022 ft | 491 kts | 298° |
| 2026-05-08 18:10 | 49.86072 | -4.99592 | 34022 ft | 491 kts | 298° |
| 2026-05-08 18:11 | 49.89675 | -5.08581 | 34024 ft | 489 kts | 298° |
| 2026-05-08 18:11 | 49.93264 | -5.17563 | 34019 ft | 488 kts | 298° |
| 2026-05-08 18:12 | 49.96811 | -5.26471 | 34020 ft | 487 kts | 298° |
| 2026-05-08 18:12 | 50.00369 | -5.35437 | 34022 ft | 486 kts | 298° |
| 2026-05-08 18:13 | 50.03915 | -5.44405 | 34023 ft | 486 kts | 298° |
| 2026-05-08 18:13 | 50.07439 | -5.53351 | 34039 ft | 487 kts | 298° |
| 2026-05-08 18:14 | 50.10986 | -5.62383 | 34170 ft | 490 kts | 298° |
| 2026-05-08 18:14 | 50.12758 | -5.66907 | 34476 ft | 488 kts | 298° |
| 2026-05-08 18:14 | 50.14524 | -5.71419 | 34831 ft | 486 kts | 297° |
| 2026-05-08 18:15 | 50.16277 | -5.75907 | 35180 ft | 483 kts | 297° |
| 2026-05-08 18:15 | 50.18026 | -5.80393 | 35482 ft | 482 kts | 297° |
| 2026-05-08 18:15 | 50.19746 | -5.84813 | 35750 ft | 482 kts | 297° |
| 2026-05-08 18:15 | 50.21487 | -5.89299 | 35942 ft | 482 kts | 297° |
| 2026-05-08 18:16 | 50.24974 | -5.98304 | 36040 ft | 484 kts | 297° |
| 2026-05-08 18:16 | 50.28460 | -6.07334 | 36038 ft | 484 kts | 297° |
| 2026-05-08 18:17 | 50.31915 | -6.16315 | 36031 ft | 484 kts | 297° |
| 2026-05-08 18:17 | 50.35385 | -6.25368 | 36039 ft | 483 kts | 297° |
| 2026-05-08 18:18 | 50.38827 | -6.34378 | 36034 ft | 483 kts | 297° |
| 2026-05-08 18:18 | 50.42264 | -6.43405 | 36040 ft | 483 kts | 297° |
| 2026-05-08 18:19 | 50.45700 | -6.52463 | 36042 ft | 483 kts | 296° |
| 2026-05-08 18:19 | 50.49142 | -6.61569 | 36049 ft | 484 kts | 296° |
| 2026-05-08 18:20 | 50.52582 | -6.70699 | 36035 ft | 485 kts | 296° |
| 2026-05-08 18:20 | 50.55994 | -6.79787 | 36044 ft | 485 kts | 296° |
| 2026-05-08 18:21 | 50.59425 | -6.88959 | 36044 ft | 485 kts | 296° |
| 2026-05-08 18:21 | 50.62819 | -6.98066 | 36044 ft | 484 kts | 296° |
| 2026-05-08 18:22 | 50.66230 | -7.07250 | 36052 ft | 485 kts | 296° |
| 2026-05-08 18:22 | 50.69639 | -7.16461 | 36035 ft | 485 kts | 296° |
| 2026-05-08 18:23 | 50.73014 | -7.25610 | 36051 ft | 484 kts | 296° |
| 2026-05-08 18:23 | 50.76390 | -7.34798 | 36045 ft | 483 kts | 296° |
| 2026-05-08 18:24 | 50.79743 | -7.43956 | 36039 ft | 482 kts | 296° |
| 2026-05-08 18:24 | 50.83104 | -7.53170 | 36058 ft | 482 kts | 296° |
| 2026-05-08 18:25 | 50.86435 | -7.62333 | 36052 ft | 483 kts | 295° |
| 2026-05-08 18:25 | 50.89783 | -7.71578 | 36053 ft | 483 kts | 295° |
| 2026-05-08 18:26 | 50.93124 | -7.80838 | 36055 ft | 484 kts | 295° |
| 2026-05-08 18:26 | 50.96464 | -7.90124 | 36055 ft | 485 kts | 295° |
| 2026-05-08 18:27 | 50.99288 | -7.97842 | 36051 ft | 487 kts | 298° |
| 2026-05-08 18:27 | 51.04240 | -8.07696 | 36071 ft | 493 kts | 308° |
| 2026-05-08 18:28 | 51.08901 | -8.15734 | 36067 ft | 494 kts | 308° |
| 2026-05-08 18:28 | 51.13523 | -8.23749 | 36056 ft | 493 kts | 308° |
| 2026-05-08 18:29 | 51.18140 | -8.31858 | 36059 ft | 493 kts | 308° |
| 2026-05-08 18:29 | 51.22699 | -8.39932 | 36062 ft | 492 kts | 308° |
| 2026-05-08 18:30 | 51.27281 | -8.48079 | 36075 ft | 491 kts | 307° |
| 2026-05-08 18:30 | 51.31850 | -8.56225 | 36069 ft | 491 kts | 307° |
| 2026-05-08 18:31 | 51.36374 | -8.64314 | 36083 ft | 490 kts | 307° |
| 2026-05-08 18:31 | 51.40916 | -8.72462 | 36071 ft | 490 kts | 307° |
| 2026-05-08 18:32 | 51.45457 | -8.80635 | 36071 ft | 490 kts | 307° |
| 2026-05-08 18:32 | 51.49962 | -8.88767 | 36078 ft | 489 kts | 307° |
| 2026-05-08 18:33 | 51.54477 | -8.96944 | 36070 ft | 489 kts | 307° |
| 2026-05-08 18:33 | 51.58990 | -9.05144 | 36079 ft | 489 kts | 307° |
| 2026-05-08 18:34 | 51.63465 | -9.13303 | 36077 ft | 488 kts | 307° |
| 2026-05-08 18:34 | 51.67954 | -9.21514 | 36079 ft | 488 kts | 307° |
| 2026-05-08 18:35 | 51.72446 | -9.29757 | 36081 ft | 489 kts | 306° |
| 2026-05-08 18:35 | 51.76929 | -9.38011 | 36082 ft | 489 kts | 306° |
| 2026-05-08 18:36 | 51.81411 | -9.46287 | 36086 ft | 488 kts | 306° |
| 2026-05-08 18:36 | 51.85843 | -9.54500 | 36082 ft | 488 kts | 306° |
| 2026-05-08 18:37 | 51.90299 | -9.62784 | 36108 ft | 487 kts | 306° |
| 2026-05-08 18:37 | 51.94738 | -9.71062 | 36091 ft | 485 kts | 306° |
| 2026-05-08 18:38 | 51.99159 | -9.79335 | 36107 ft | 484 kts | 306° |
| 2026-05-08 18:38 | 52.03545 | -9.87572 | 36087 ft | 485 kts | 306° |
| 2026-05-08 18:39 | 52.07947 | -9.95865 | 36100 ft | 484 kts | 306° |
| 2026-05-08 18:39 | 52.12349 | -10.04186 | 36111 ft | 485 kts | 305° |
| 2026-05-08 18:40 | 52.16012 | -10.11130 | 36113 ft | 486 kts | 305° |
| 2026-05-08 18:40 | 52.20422 | -10.19515 | 36105 ft | 486 kts | 305° |
| 2026-05-08 18:41 | 52.24812 | -10.27893 | 36119 ft | 485 kts | 305° |
| 2026-05-08 18:41 | 52.29202 | -10.36295 | 36112 ft | 487 kts | 305° |
| 2026-05-08 18:42 | 52.33568 | -10.44677 | 36120 ft | 487 kts | 305° |
| 2026-05-08 18:42 | 52.37950 | -10.53119 | 36101 ft | 486 kts | 304° |
| 2026-05-08 18:43 | 52.42319 | -10.61566 | 36122 ft | 485 kts | 304° |
| 2026-05-08 18:43 | 52.46672 | -10.70011 | 36125 ft | 484 kts | 304° |
| 2026-05-08 18:44 | 52.50981 | -10.78397 | 36129 ft | 483 kts | 304° |
| 2026-05-08 18:44 | 52.55306 | -10.86844 | 36126 ft | 482 kts | 304° |
| 2026-05-08 18:45 | 52.59610 | -10.95277 | 36133 ft | 480 kts | 304° |
| 2026-05-08 18:45 | 52.63898 | -11.03708 | 36137 ft | 479 kts | 304° |
| 2026-05-08 18:46 | 52.68140 | -11.12077 | 36146 ft | 479 kts | 304° |
| 2026-05-08 18:46 | 52.72407 | -11.20526 | 36181 ft | 479 kts | 304° |
| 2026-05-08 18:47 | 52.76682 | -11.29019 | 36164 ft | 481 kts | 304° |
| 2026-05-08 18:47 | 52.80959 | -11.37541 | 36163 ft | 482 kts | 304° |
| 2026-05-08 18:48 | 52.85235 | -11.46090 | 36163 ft | 482 kts | 304° |
| 2026-05-08 18:48 | 52.89476 | -11.54599 | 36167 ft | 482 kts | 303° |
| 2026-05-08 18:49 | 52.93752 | -11.63206 | 36170 ft | 482 kts | 303° |
| 2026-05-08 18:49 | 52.98010 | -11.71808 | 36177 ft | 482 kts | 303° |
| 2026-05-08 18:50 | 53.02236 | -11.80376 | 36180 ft | 482 kts | 303° |
| 2026-05-08 18:50 | 53.06486 | -11.89021 | 36179 ft | 483 kts | 303° |
| 2026-05-08 18:51 | 53.10711 | -11.97643 | 36184 ft | 483 kts | 303° |
| 2026-05-08 18:51 | 53.14959 | -12.06342 | 36196 ft | 483 kts | 303° |
| 2026-05-08 18:52 | 53.19192 | -12.15041 | 36195 ft | 482 kts | 303° |
| 2026-05-08 18:52 | 53.23387 | -12.23694 | 36194 ft | 482 kts | 303° |
| 2026-05-08 18:53 | 53.27590 | -12.32390 | 36191 ft | 481 kts | 303° |
| 2026-05-08 18:53 | 53.31778 | -12.41088 | 36214 ft | 480 kts | 303° |
| 2026-05-08 18:54 | 53.35968 | -12.49820 | 36210 ft | 480 kts | 303° |
| 2026-05-08 18:54 | 53.40146 | -12.58559 | 36208 ft | 480 kts | 303° |
| 2026-05-08 18:55 | 53.46372 | -12.71633 | 36211 ft | 479 kts | 303° |
| 2026-05-08 18:56 | 53.50527 | -12.80399 | 36218 ft | 479 kts | 303° |
| 2026-05-08 18:56 | 53.54675 | -12.89180 | 36217 ft | 479 kts | 302° |
| 2026-05-08 18:57 | 53.58817 | -12.97980 | 36233 ft | 479 kts | 302° |
| 2026-05-08 18:57 | 53.62918 | -13.06722 | 36226 ft | 479 kts | 302° |
| 2026-05-08 18:58 | 53.67040 | -13.15540 | 36233 ft | 479 kts | 303° |
| 2026-05-08 18:58 | 53.71157 | -13.24381 | 36233 ft | 478 kts | 303° |
| 2026-05-08 18:59 | 53.75264 | -13.33229 | 36239 ft | 478 kts | 303° |
| 2026-05-08 18:59 | 53.79363 | -13.42090 | 36236 ft | 478 kts | 303° |
| 2026-05-08 19:00 | 53.83448 | -13.50955 | 36243 ft | 477 kts | 303° |
| 2026-05-08 19:00 | 53.87498 | -13.59776 | 36247 ft | 476 kts | 303° |
| 2026-05-08 19:01 | 53.91561 | -13.68653 | 36253 ft | 475 kts | 303° |
| 2026-05-08 19:01 | 53.95592 | -13.77493 | 36249 ft | 475 kts | 302° |
| 2026-05-08 19:02 | 53.99634 | -13.86388 | 36266 ft | 475 kts | 303° |
| 2026-05-08 19:02 | 54.03668 | -13.95300 | 36260 ft | 475 kts | 303° |
| 2026-05-08 19:03 | 54.07670 | -14.04172 | 36262 ft | 475 kts | 303° |
| 2026-05-08 19:03 | 54.11685 | -14.13105 | 36264 ft | 475 kts | 303° |
| 2026-05-08 19:04 | 54.15697 | -14.22061 | 36266 ft | 475 kts | 303° |
| 2026-05-08 19:04 | 54.19700 | -14.31034 | 36275 ft | 474 kts | 303° |
| 2026-05-08 19:05 | 54.23672 | -14.39963 | 36276 ft | 474 kts | 303° |
| 2026-05-08 19:05 | 54.27649 | -14.48939 | 36280 ft | 473 kts | 303° |
| 2026-05-08 19:06 | 54.31625 | -14.57944 | 36280 ft | 472 kts | 303° |
| 2026-05-08 19:06 | 54.35561 | -14.66894 | 36283 ft | 472 kts | 303° |
| 2026-05-08 19:07 | 54.39511 | -14.75905 | 36298 ft | 472 kts | 304° |
| 2026-05-08 19:07 | 54.43457 | -14.84942 | 36291 ft | 473 kts | 304° |
| 2026-05-08 19:08 | 54.47373 | -14.94032 | 36295 ft | 472 kts | 301° |
| 2026-05-08 19:08 | 54.50276 | -15.04097 | 36301 ft | 468 kts | 288° |
| 2026-05-08 19:09 | 54.51898 | -15.14813 | 36306 ft | 465 kts | 279° |
| 2026-05-08 19:09 | 54.53159 | -15.25772 | 36306 ft | 467 kts | 280° |
| 2026-05-08 19:10 | 54.54425 | -15.36771 | 36316 ft | 468 kts | 280° |
| 2026-05-08 19:10 | 54.55707 | -15.47747 | 36319 ft | 470 kts | 281° |
| 2026-05-08 19:11 | 54.57005 | -15.58810 | 36320 ft | 470 kts | 281° |
| 2026-05-08 19:11 | 54.58293 | -15.69860 | 36318 ft | 470 kts | 281° |
| 2026-05-08 19:12 | 54.59564 | -15.80880 | 36314 ft | 470 kts | 281° |
| 2026-05-08 19:12 | 54.60829 | -15.91940 | 36323 ft | 470 kts | 281° |
| 2026-05-08 19:13 | 54.62083 | -16.03011 | 36325 ft | 470 kts | 281° |
| 2026-05-08 19:13 | 54.63330 | -16.14108 | 36328 ft | 471 kts | 281° |
| 2026-05-08 19:14 | 54.64562 | -16.25170 | 36341 ft | 471 kts | 281° |
| 2026-05-08 19:14 | 54.65789 | -16.36286 | 36333 ft | 470 kts | 281° |
| 2026-05-08 19:15 | 54.67005 | -16.47411 | 36336 ft | 472 kts | 282° |
| 2026-05-08 19:15 | 54.68219 | -16.58594 | 36349 ft | 474 kts | 282° |
| 2026-05-08 19:16 | 54.69418 | -16.69748 | 36344 ft | 476 kts | 282° |
| 2026-05-08 19:16 | 54.70619 | -16.81031 | 36343 ft | 478 kts | 282° |
| 2026-05-08 19:17 | 54.71811 | -16.92334 | 36354 ft | 477 kts | 282° |
| 2026-05-08 19:17 | 54.72990 | -17.03624 | 36350 ft | 475 kts | 281° |
| 2026-05-08 19:18 | 54.74157 | -17.14901 | 36354 ft | 474 kts | 282° |
| 2026-05-08 19:18 | 54.75301 | -17.26071 | 36360 ft | 474 kts | 281° |
| 2026-05-08 19:19 | 54.76445 | -17.37330 | 36362 ft | 474 kts | 281° |
| 2026-05-08 19:19 | 54.77579 | -17.48608 | 36366 ft | 475 kts | 281° |
| 2026-05-08 19:20 | 54.78703 | -17.59904 | 36358 ft | 475 kts | 282° |
| 2026-05-08 19:20 | 54.79812 | -17.71147 | 36359 ft | 477 kts | 281° |
| 2026-05-08 19:21 | 54.80924 | -17.82541 | 36381 ft | 480 kts | 281° |
| 2026-05-08 19:21 | 54.82030 | -17.93983 | 36372 ft | 481 kts | 281° |
| 2026-05-08 19:22 | 54.83121 | -18.05402 | 36366 ft | 482 kts | 281° |
| 2026-05-08 19:22 | 54.84209 | -18.16901 | 36375 ft | 482 kts | 281° |
| 2026-05-08 19:23 | 54.85283 | -18.28380 | 36367 ft | 482 kts | 282° |
| 2026-05-08 19:23 | 54.86349 | -18.39885 | 36377 ft | 482 kts | 281° |
| 2026-05-08 19:24 | 54.87399 | -18.51343 | 36377 ft | 483 kts | 281° |
| 2026-05-08 19:24 | 54.88446 | -18.62894 | 36380 ft | 484 kts | 281° |
| 2026-05-08 19:25 | 54.89483 | -18.74458 | 36385 ft | 485 kts | 281° |
| 2026-05-08 19:25 | 54.90505 | -18.85992 | 36371 ft | 485 kts | 282° |
| 2026-05-08 19:26 | 54.91523 | -18.97603 | 36388 ft | 486 kts | 282° |
| 2026-05-08 19:26 | 54.92533 | -19.09252 | 36398 ft | 487 kts | 282° |
| 2026-05-08 19:27 | 54.93535 | -19.20957 | 36395 ft | 488 kts | 282° |
| 2026-05-08 19:27 | 54.94525 | -19.32649 | 36397 ft | 488 kts | 282° |
| 2026-05-08 19:28 | 54.95498 | -19.44279 | 36378 ft | 488 kts | 282° |
| 2026-05-08 19:28 | 54.96465 | -19.55987 | 36400 ft | 488 kts | 282° |
| 2026-05-08 19:29 | 54.97263 | -19.65744 | 36404 ft | 489 kts | 282° |
| 2026-05-08 19:29 | 54.98363 | -19.79366 | 36408 ft | 489 kts | 282° |
| 2026-05-08 19:30 | 54.99149 | -19.89197 | 36412 ft | 489 kts | 282° |
| 2026-05-08 19:30 | 54.99991 | -20.00982 | 36401 ft | 492 kts | 278° |
| 2026-05-08 19:31 | 54.99978 | -20.12876 | 36408 ft | 495 kts | 274° |
| 2026-05-08 19:31 | 54.99795 | -20.24883 | 36413 ft | 495 kts | 273° |
| 2026-05-08 19:32 | 54.99625 | -20.36905 | 36418 ft | 496 kts | 274° |
| 2026-05-08 19:32 | 54.99472 | -20.48936 | 36418 ft | 496 kts | 274° |
| 2026-05-08 19:33 | 54.99318 | -20.60949 | 36420 ft | 496 kts | 274° |
| 2026-05-08 19:33 | 54.99152 | -20.72892 | 36426 ft | 496 kts | 274° |
| 2026-05-08 19:34 | 54.98973 | -20.84930 | 36418 ft | 496 kts | 274° |
| 2026-05-08 19:34 | 54.98781 | -20.96956 | 36426 ft | 496 kts | 274° |
| 2026-05-08 19:35 | 54.98576 | -21.08969 | 36417 ft | 496 kts | 274° |
| 2026-05-08 19:35 | 54.98362 | -21.20900 | 36396 ft | 496 kts | 274° |
| 2026-05-08 19:36 | 54.98134 | -21.32890 | 36426 ft | 494 kts | 274° |
| 2026-05-08 19:36 | 54.97896 | -21.44840 | 36433 ft | 494 kts | 273° |
| 2026-05-08 19:37 | 54.97646 | -21.56812 | 36433 ft | 493 kts | 273° |
| 2026-05-08 19:37 | 54.97384 | -21.68752 | 36434 ft | 493 kts | 273° |
| 2026-05-08 19:38 | 54.97113 | -21.80611 | 36414 ft | 493 kts | 273° |
| 2026-05-08 19:38 | 54.96828 | -21.92532 | 36435 ft | 493 kts | 273° |
| 2026-05-08 19:39 | 54.96533 | -22.04454 | 36436 ft | 493 kts | 273° |
| 2026-05-08 19:39 | 54.96225 | -22.16397 | 36453 ft | 493 kts | 273° |
| 2026-05-08 19:40 | 54.95905 | -22.28318 | 36449 ft | 493 kts | 273° |
| 2026-05-08 19:40 | 54.95575 | -22.40187 | 36432 ft | 493 kts | 273° |
| 2026-05-08 19:41 | 54.95231 | -22.52135 | 36447 ft | 494 kts | 273° |
| 2026-05-08 19:41 | 54.94876 | -22.64070 | 36449 ft | 494 kts | 273° |
| 2026-05-08 19:42 | 54.94509 | -22.76033 | 36449 ft | 494 kts | 273° |
| 2026-05-08 19:42 | 54.94130 | -22.87937 | 36435 ft | 494 kts | 274° |
| 2026-05-08 19:43 | 54.93738 | -22.99907 | 36444 ft | 494 kts | 273° |
| 2026-05-08 19:43 | 54.93339 | -23.11764 | 36451 ft | 494 kts | 273° |
| 2026-05-08 19:44 | 54.92925 | -23.23709 | 36458 ft | 494 kts | 273° |
| 2026-05-08 19:44 | 54.92500 | -23.35653 | 36459 ft | 494 kts | 273° |
| 2026-05-08 19:45 | 54.92063 | -23.47573 | 36463 ft | 494 kts | 273° |
| 2026-05-08 19:45 | 54.91617 | -23.59411 | 36460 ft | 494 kts | 274° |
| 2026-05-08 19:46 | 54.91157 | -23.71321 | 36463 ft | 494 kts | 274° |
| 2026-05-08 19:46 | 54.90444 | -23.89223 | 36467 ft | 495 kts | 273° |
| 2026-05-08 19:47 | 54.89953 | -24.01175 | 36470 ft | 496 kts | 273° |
| 2026-05-08 19:47 | 54.89449 | -24.13154 | 36461 ft | 496 kts | 274° |
| 2026-05-08 19:48 | 54.88936 | -24.25047 | 36469 ft | 496 kts | 273° |
| 2026-05-08 19:48 | 54.88409 | -24.37019 | 36473 ft | 496 kts | 273° |
| 2026-05-08 19:49 | 54.87869 | -24.48992 | 36477 ft | 497 kts | 273° |
| 2026-05-08 19:49 | 54.87320 | -24.60886 | 36474 ft | 496 kts | 273° |
| 2026-05-08 19:50 | 54.86758 | -24.72827 | 36477 ft | 494 kts | 274° |
| 2026-05-08 19:50 | 54.86187 | -24.84709 | 36474 ft | 493 kts | 274° |
| 2026-05-08 19:51 | 54.85609 | -24.96498 | 36481 ft | 492 kts | 273° |
| 2026-05-08 19:51 | 54.85018 | -25.08329 | 36482 ft | 492 kts | 273° |
| 2026-05-08 19:52 | 54.84415 | -25.20158 | 36486 ft | 491 kts | 273° |
| 2026-05-08 19:52 | 54.83801 | -25.31978 | 36482 ft | 491 kts | 273° |
| 2026-05-08 19:53 | 54.83180 | -25.43709 | 36488 ft | 491 kts | 273° |
| 2026-05-08 19:53 | 54.82542 | -25.55546 | 36488 ft | 491 kts | 273° |
| 2026-05-08 19:54 | 54.81894 | -25.67351 | 36492 ft | 492 kts | 273° |
| 2026-05-08 19:54 | 54.81237 | -25.79101 | 36463 ft | 492 kts | 273° |
| 2026-05-08 19:55 | 54.80563 | -25.90921 | 36491 ft | 492 kts | 273° |
| 2026-05-08 19:55 | 54.79879 | -26.02746 | 36496 ft | 492 kts | 272° |
| 2026-05-08 19:56 | 54.79183 | -26.14560 | 36496 ft | 492 kts | 272° |
| 2026-05-08 19:56 | 54.78480 | -26.26284 | 36488 ft | 491 kts | 272° |
| 2026-05-08 19:57 | 54.77763 | -26.38058 | 36462 ft | 489 kts | 272° |
| 2026-05-08 19:57 | 54.77039 | -26.49752 | 36499 ft | 487 kts | 272° |
| 2026-05-08 19:58 | 54.76306 | -26.61428 | 36504 ft | 486 kts | 272° |
| 2026-05-08 19:58 | 54.75567 | -26.73007 | 36506 ft | 486 kts | 272° |
| 2026-05-08 19:59 | 54.74813 | -26.84656 | 36507 ft | 486 kts | 272° |
| 2026-05-08 19:59 | 54.74053 | -26.96220 | 36487 ft | 486 kts | 272° |
| 2026-05-08 20:00 | 54.73278 | -27.07830 | 36507 ft | 486 kts | 272° |
| 2026-05-08 20:00 | 54.72489 | -27.19487 | 36520 ft | 487 kts | 272° |
| 2026-05-08 20:01 | 54.71692 | -27.31131 | 36526 ft | 493 kts | 271° |
| 2026-05-08 20:01 | 54.70868 | -27.43015 | 36527 ft | 500 kts | 271° |
| 2026-05-08 20:02 | 54.70018 | -27.55031 | 36512 ft | 505 kts | 271° |
| 2026-05-08 20:02 | 54.69146 | -27.67131 | 36523 ft | 507 kts | 271° |
| 2026-05-08 20:03 | 54.68264 | -27.79215 | 36519 ft | 508 kts | 271° |
| 2026-05-08 20:03 | 54.67372 | -27.91272 | 36516 ft | 507 kts | 271° |
| 2026-05-08 20:04 | 54.66467 | -28.03353 | 36519 ft | 506 kts | 271° |
| 2026-05-08 20:04 | 54.65548 | -28.15447 | 36527 ft | 504 kts | 271° |
| 2026-05-08 20:05 | 54.64632 | -28.27368 | 36524 ft | 503 kts | 271° |
| 2026-05-08 20:05 | 54.63701 | -28.39343 | 36522 ft | 502 kts | 271° |
| 2026-05-08 20:06 | 54.62762 | -28.51241 | 36522 ft | 502 kts | 271° |
| 2026-05-08 20:06 | 54.61806 | -28.63205 | 36526 ft | 502 kts | 271° |
| 2026-05-08 20:07 | 54.60839 | -28.75154 | 36527 ft | 503 kts | 271° |
| 2026-05-08 20:07 | 54.59864 | -28.87044 | 36525 ft | 503 kts | 270° |
| 2026-05-08 20:08 | 54.58872 | -28.98995 | 36519 ft | 503 kts | 270° |
| 2026-05-08 20:08 | 54.57867 | -29.10959 | 36519 ft | 504 kts | 270° |
| 2026-05-08 20:09 | 54.56855 | -29.22847 | 36517 ft | 504 kts | 271° |
| 2026-05-08 20:09 | 54.55826 | -29.34803 | 36524 ft | 504 kts | 270° |
| 2026-05-08 20:10 | 54.54782 | -29.46793 | 36501 ft | 504 kts | 271° |
| 2026-05-08 20:10 | 54.53735 | -29.58665 | 36523 ft | 504 kts | 271° |
| 2026-05-08 20:11 | 54.52673 | -29.70591 | 36526 ft | 504 kts | 271° |
| 2026-05-08 20:11 | 54.51597 | -29.82522 | 36520 ft | 504 kts | 271° |
| 2026-05-08 20:12 | 54.50512 | -29.94446 | 36527 ft | 504 kts | 271° |
| 2026-05-08 20:12 | 54.49136 | -30.06354 | 36534 ft | 512 kts | 265° |
| 2026-05-08 20:13 | 54.47318 | -30.18146 | 36530 ft | 514 kts | 265° |
| 2026-05-08 20:13 | 54.45453 | -30.30023 | 36506 ft | 514 kts | 265° |
| 2026-05-08 20:14 | 54.43602 | -30.41933 | 36529 ft | 515 kts | 265° |
| 2026-05-08 20:14 | 54.41771 | -30.53764 | 36530 ft | 516 kts | 265° |
| 2026-05-08 20:15 | 54.39915 | -30.65687 | 36537 ft | 517 kts | 265° |
| 2026-05-08 20:15 | 54.38051 | -30.77561 | 36542 ft | 518 kts | 265° |
| 2026-05-08 20:16 | 54.36161 | -30.89505 | 36536 ft | 518 kts | 265° |
| 2026-05-08 20:16 | 54.34583 | -30.99411 | 36542 ft | 519 kts | 265° |
| 2026-05-08 20:17 | 54.32669 | -31.11355 | 36541 ft | 519 kts | 265° |
| 2026-05-08 20:17 | 54.30423 | -31.25254 | 36540 ft | 520 kts | 265° |
| 2026-05-08 20:18 | 54.28798 | -31.35245 | 36526 ft | 520 kts | 264° |
| 2026-05-08 20:18 | 54.26859 | -31.47082 | 36537 ft | 520 kts | 264° |
| 2026-05-08 20:19 | 54.24904 | -31.58970 | 36529 ft | 518 kts | 264° |
| 2026-05-08 20:19 | 54.22950 | -31.70705 | 36538 ft | 515 kts | 264° |
| 2026-05-08 20:20 | 54.20983 | -31.82468 | 36503 ft | 514 kts | 264° |
| 2026-05-08 20:20 | 54.19010 | -31.94199 | 36537 ft | 513 kts | 264° |
| 2026-05-08 20:21 | 54.17038 | -32.05852 | 36547 ft | 513 kts | 264° |
| 2026-05-08 20:21 | 54.15045 | -32.17548 | 36543 ft | 514 kts | 264° |
| 2026-05-08 20:22 | 54.13027 | -32.29308 | 36538 ft | 515 kts | 263° |
| 2026-05-08 20:22 | 54.11000 | -32.41038 | 36531 ft | 515 kts | 263° |
| 2026-05-08 20:23 | 54.08977 | -32.52664 | 36539 ft | 515 kts | 263° |
| 2026-05-08 20:23 | 54.06921 | -32.64409 | 36542 ft | 516 kts | 263° |
| 2026-05-08 20:24 | 54.04870 | -32.76053 | 36542 ft | 516 kts | 263° |
| 2026-05-08 20:24 | 54.02792 | -32.87764 | 36528 ft | 516 kts | 262° |
| 2026-05-08 20:25 | 54.00703 | -32.99462 | 36540 ft | 516 kts | 262° |
| 2026-05-08 20:25 | 53.98618 | -33.11073 | 36548 ft | 516 kts | 262° |
| 2026-05-08 20:26 | 53.96510 | -33.22732 | 36540 ft | 516 kts | 262° |
| 2026-05-08 20:26 | 53.94387 | -33.34401 | 36529 ft | 516 kts | 262° |
| 2026-05-08 20:27 | 53.92272 | -33.45944 | 36543 ft | 514 kts | 262° |
| 2026-05-08 20:27 | 53.90139 | -33.57520 | 36544 ft | 513 kts | 262° |
| 2026-05-08 20:28 | 53.87999 | -33.69066 | 36540 ft | 513 kts | 261° |
| 2026-05-08 20:28 | 53.85845 | -33.80612 | 36539 ft | 513 kts | 261° |
| 2026-05-08 20:29 | 53.83684 | -33.92129 | 36538 ft | 512 kts | 261° |
| 2026-05-08 20:29 | 53.81527 | -34.03552 | 36539 ft | 513 kts | 261° |
| 2026-05-08 20:30 | 53.79343 | -34.15048 | 36537 ft | 513 kts | 261° |
| 2026-05-08 20:30 | 53.77147 | -34.26537 | 36536 ft | 513 kts | 261° |
| 2026-05-08 20:31 | 53.74950 | -34.37964 | 36522 ft | 513 kts | 261° |
| 2026-05-08 20:31 | 53.72727 | -34.49447 | 36529 ft | 512 kts | 260° |
| 2026-05-08 20:32 | 53.70515 | -34.60812 | 36529 ft | 512 kts | 260° |
| 2026-05-08 20:32 | 53.68280 | -34.72230 | 36525 ft | 512 kts | 260° |
| 2026-05-08 20:33 | 53.66033 | -34.83641 | 36499 ft | 512 kts | 260° |
| 2026-05-08 20:33 | 53.63791 | -34.94963 | 36517 ft | 511 kts | 259° |
| 2026-05-08 20:34 | 53.61524 | -35.06338 | 36521 ft | 511 kts | 259° |
| 2026-05-08 20:35 | 53.58101 | -35.23397 | 36520 ft | 512 kts | 259° |
| 2026-05-08 20:35 | 53.55821 | -35.34678 | 36495 ft | 511 kts | 259° |
| 2026-05-08 20:36 | 53.53513 | -35.46025 | 36516 ft | 512 kts | 259° |
| 2026-05-08 20:36 | 53.51213 | -35.57275 | 36516 ft | 512 kts | 259° |
| 2026-05-08 20:37 | 53.48883 | -35.68605 | 36515 ft | 512 kts | 258° |
| 2026-05-08 20:37 | 53.46539 | -35.79942 | 36484 ft | 513 kts | 258° |
| 2026-05-08 20:38 | 53.44202 | -35.91176 | 36501 ft | 512 kts | 258° |
| 2026-05-08 20:38 | 53.41838 | -36.02478 | 36510 ft | 513 kts | 258° |
| 2026-05-08 20:39 | 53.39478 | -36.13697 | 36488 ft | 512 kts | 257° |
| 2026-05-08 20:39 | 53.37099 | -36.24943 | 36495 ft | 512 kts | 257° |
| 2026-05-08 20:40 | 53.34710 | -36.36172 | 36492 ft | 511 kts | 257° |
| 2026-05-08 20:40 | 53.32316 | -36.47367 | 36487 ft | 510 kts | 257° |
| 2026-05-08 20:41 | 53.29926 | -36.58482 | 36479 ft | 510 kts | 257° |
| 2026-05-08 20:41 | 53.27511 | -36.69654 | 36485 ft | 510 kts | 257° |
| 2026-05-08 20:42 | 53.25097 | -36.80760 | 36473 ft | 510 kts | 256° |
| 2026-05-08 20:42 | 53.22664 | -36.91889 | 36476 ft | 509 kts | 256° |
| 2026-05-08 20:43 | 53.20217 | -37.03026 | 36480 ft | 509 kts | 256° |
| 2026-05-08 20:43 | 53.17769 | -37.14107 | 36470 ft | 509 kts | 256° |
| 2026-05-08 20:44 | 53.15322 | -37.25127 | 36439 ft | 509 kts | 256° |
| 2026-05-08 20:44 | 53.12858 | -37.36157 | 36458 ft | 508 kts | 256° |
| 2026-05-08 20:45 | 53.10385 | -37.47177 | 36454 ft | 507 kts | 256° |
| 2026-05-08 20:45 | 53.07904 | -37.58171 | 36456 ft | 507 kts | 256° |
| 2026-05-08 20:46 | 53.05425 | -37.69102 | 36450 ft | 507 kts | 256° |
| 2026-05-08 20:46 | 53.02920 | -37.80086 | 36435 ft | 506 kts | 255° |
| 2026-05-08 20:47 | 53.00415 | -37.91018 | 36433 ft | 506 kts | 255° |
| 2026-05-08 20:47 | 52.97912 | -38.01880 | 36430 ft | 505 kts | 255° |
| 2026-05-08 20:48 | 52.95389 | -38.12780 | 36436 ft | 505 kts | 255° |
| 2026-05-08 20:48 | 52.92859 | -38.23652 | 36423 ft | 504 kts | 255° |
| 2026-05-08 20:49 | 52.90346 | -38.34389 | 36421 ft | 501 kts | 254° |
| 2026-05-08 20:49 | 52.87823 | -38.45120 | 36417 ft | 498 kts | 254° |
| 2026-05-08 20:50 | 52.85303 | -38.55784 | 36412 ft | 496 kts | 254° |
| 2026-05-08 20:50 | 52.82782 | -38.66407 | 36415 ft | 496 kts | 254° |
| 2026-05-08 20:51 | 52.80266 | -38.76955 | 36400 ft | 496 kts | 254° |
| 2026-05-08 20:51 | 52.77725 | -38.87558 | 36403 ft | 496 kts | 254° |
| 2026-05-08 20:52 | 52.75161 | -38.98199 | 36399 ft | 497 kts | 254° |
| 2026-05-08 20:52 | 52.72604 | -39.08764 | 36400 ft | 498 kts | 253° |
| 2026-05-08 20:53 | 52.70025 | -39.19361 | 36385 ft | 497 kts | 253° |
| 2026-05-08 20:53 | 52.67457 | -39.29860 | 36386 ft | 495 kts | 253° |
| 2026-05-08 20:54 | 52.64873 | -39.40383 | 36389 ft | 494 kts | 253° |
| 2026-05-08 20:54 | 52.62289 | -39.50855 | 36381 ft | 493 kts | 253° |
| 2026-05-08 20:55 | 52.59710 | -39.61258 | 36370 ft | 492 kts | 252° |
| 2026-05-08 20:55 | 52.57112 | -39.71688 | 36369 ft | 491 kts | 252° |
| 2026-05-08 20:56 | 52.54508 | -39.82094 | 36373 ft | 491 kts | 252° |
| 2026-05-08 20:56 | 52.51921 | -39.92391 | 36369 ft | 491 kts | 252° |
| 2026-05-08 20:57 | 52.49689 | -40.02926 | 36340 ft | 485 kts | 260° |
| 2026-05-08 20:57 | 52.48486 | -40.13776 | 36355 ft | 481 kts | 265° |
| 2026-05-08 20:58 | 52.47391 | -40.24626 | 36348 ft | 482 kts | 264° |
| 2026-05-08 20:58 | 52.46268 | -40.35394 | 36345 ft | 482 kts | 264° |
| 2026-05-08 20:59 | 52.45108 | -40.46244 | 36339 ft | 482 kts | 263° |
| 2026-05-08 20:59 | 52.43935 | -40.57068 | 36328 ft | 482 kts | 263° |
| 2026-05-08 21:00 | 52.42753 | -40.67895 | 36327 ft | 482 kts | 263° |
| 2026-05-08 21:00 | 52.41569 | -40.78634 | 36332 ft | 482 kts | 263° |
| 2026-05-08 21:01 | 52.40370 | -40.89425 | 36320 ft | 482 kts | 263° |
| 2026-05-08 21:01 | 52.39159 | -41.00228 | 36318 ft | 482 kts | 263° |
| 2026-05-08 21:02 | 52.37936 | -41.11054 | 36295 ft | 482 kts | 262° |
| 2026-05-08 21:02 | 52.36715 | -41.21770 | 36300 ft | 482 kts | 262° |
| 2026-05-08 21:03 | 52.35474 | -41.32561 | 36293 ft | 481 kts | 262° |
| 2026-05-08 21:03 | 52.34235 | -41.43240 | 36292 ft | 480 kts | 261° |
| 2026-05-08 21:04 | 52.32979 | -41.53982 | 36288 ft | 480 kts | 261° |
| 2026-05-08 21:04 | 52.31715 | -41.64700 | 36288 ft | 479 kts | 261° |
| 2026-05-08 21:05 | 52.30442 | -41.75411 | 36288 ft | 479 kts | 261° |
| 2026-05-08 21:05 | 52.29168 | -41.86046 | 36270 ft | 479 kts | 261° |
| 2026-05-08 21:06 | 52.28096 | -41.94928 | 36269 ft | 479 kts | 261° |
| 2026-05-08 21:06 | 52.26797 | -42.05607 | 36266 ft | 479 kts | 261° |
| 2026-05-08 21:07 | 52.25272 | -42.18041 | 36264 ft | 479 kts | 261° |
| 2026-05-08 21:07 | 52.24166 | -42.26983 | 36253 ft | 480 kts | 260° |
| 2026-05-08 21:08 | 52.22838 | -42.37650 | 36242 ft | 479 kts | 260° |
| 2026-05-08 21:08 | 52.21501 | -42.48299 | 36246 ft | 478 kts | 259° |
| 2026-05-08 21:09 | 52.20166 | -42.58854 | 36240 ft | 478 kts | 259° |
| 2026-05-08 21:09 | 52.18812 | -42.69480 | 36225 ft | 478 kts | 259° |
| 2026-05-08 21:10 | 52.17449 | -42.80091 | 36232 ft | 477 kts | 259° |
| 2026-05-08 21:10 | 52.16089 | -42.90602 | 36219 ft | 476 kts | 259° |
| 2026-05-08 21:11 | 52.14712 | -43.01160 | 36218 ft | 476 kts | 259° |
| 2026-05-08 21:11 | 52.13327 | -43.11700 | 36206 ft | 475 kts | 259° |
| 2026-05-08 21:12 | 52.11943 | -43.22165 | 36209 ft | 476 kts | 259° |
| 2026-05-08 21:12 | 52.10540 | -43.32693 | 36205 ft | 476 kts | 258° |
| 2026-05-08 21:13 | 52.09126 | -43.43220 | 36188 ft | 474 kts | 258° |
| 2026-05-08 21:13 | 52.07719 | -43.53627 | 36188 ft | 472 kts | 258° |
| 2026-05-08 21:14 | 52.06297 | -43.64062 | 36188 ft | 471 kts | 258° |
| 2026-05-08 21:14 | 52.04879 | -43.74402 | 36181 ft | 472 kts | 258° |
| 2026-05-08 21:15 | 52.03438 | -43.84834 | 36186 ft | 472 kts | 257° |
| 2026-05-08 21:15 | 52.01986 | -43.95272 | 36171 ft | 472 kts | 257° |
| 2026-05-08 21:16 | 52.00538 | -44.05611 | 36165 ft | 473 kts | 257° |
| 2026-05-08 21:16 | 51.99067 | -44.16035 | 36156 ft | 473 kts | 257° |
| 2026-05-08 21:17 | 51.97589 | -44.26444 | 36164 ft | 473 kts | 257° |
| 2026-05-08 21:17 | 51.96098 | -44.36878 | 36141 ft | 472 kts | 256° |
| 2026-05-08 21:18 | 51.94613 | -44.47186 | 36135 ft | 471 kts | 256° |
| 2026-05-08 21:18 | 51.93118 | -44.57503 | 36128 ft | 469 kts | 256° |
| 2026-05-08 21:19 | 51.91615 | -44.67798 | 36124 ft | 469 kts | 256° |
| 2026-05-08 21:19 | 51.90113 | -44.78025 | 36117 ft | 469 kts | 256° |
| 2026-05-08 21:20 | 51.88591 | -44.88315 | 36111 ft | 470 kts | 256° |
| 2026-05-08 21:20 | 51.87057 | -44.98625 | 36107 ft | 470 kts | 255° |
| 2026-05-08 21:21 | 51.85523 | -45.08866 | 36097 ft | 471 kts | 255° |
| 2026-05-08 21:21 | 51.83968 | -45.19177 | 36085 ft | 471 kts | 255° |
| 2026-05-08 21:22 | 51.82409 | -45.29456 | 36096 ft | 471 kts | 255° |
| 2026-05-08 21:22 | 51.80836 | -45.39756 | 36081 ft | 470 kts | 254° |
| 2026-05-08 21:23 | 51.79268 | -45.49953 | 36068 ft | 470 kts | 254° |
| 2026-05-08 21:23 | 51.77682 | -45.60205 | 36048 ft | 470 kts | 254° |
| 2026-05-08 21:24 | 51.76088 | -45.70445 | 36049 ft | 470 kts | 254° |
| 2026-05-08 21:24 | 51.74493 | -45.80630 | 36060 ft | 470 kts | 254° |
| 2026-05-08 21:25 | 51.72881 | -45.90856 | 36034 ft | 470 kts | 254° |
| 2026-05-08 21:25 | 51.71258 | -46.01083 | 36034 ft | 471 kts | 253° |
| 2026-05-08 21:26 | 51.69625 | -46.11318 | 36028 ft | 471 kts | 253° |
| 2026-05-08 21:26 | 51.67986 | -46.21533 | 36026 ft | 470 kts | 253° |
| 2026-05-08 21:27 | 51.66346 | -46.31676 | 36012 ft | 470 kts | 253° |
| 2026-05-08 21:27 | 51.64693 | -46.41851 | 36006 ft | 469 kts | 252° |
| 2026-05-08 21:28 | 51.63034 | -46.51998 | 35999 ft | 468 kts | 252° |
| 2026-05-08 21:28 | 51.61371 | -46.62114 | 35999 ft | 466 kts | 252° |
| 2026-05-08 21:29 | 51.59710 | -46.72152 | 35975 ft | 466 kts | 252° |
| 2026-05-08 21:29 | 51.58033 | -46.82225 | 35980 ft | 465 kts | 252° |
| 2026-05-08 21:30 | 51.56356 | -46.92241 | 35970 ft | 466 kts | 252° |
| 2026-05-08 21:30 | 51.54664 | -47.02292 | 35966 ft | 466 kts | 251° |
| 2026-05-08 21:31 | 51.52964 | -47.12329 | 35967 ft | 465 kts | 251° |
| 2026-05-08 21:31 | 51.51248 | -47.22395 | 35947 ft | 466 kts | 251° |
| 2026-05-08 21:32 | 51.49539 | -47.32374 | 35941 ft | 466 kts | 251° |
| 2026-05-08 21:32 | 51.47811 | -47.42401 | 35935 ft | 466 kts | 251° |
| 2026-05-08 21:33 | 51.46083 | -47.52375 | 35932 ft | 465 kts | 251° |
| 2026-05-08 21:33 | 51.44335 | -47.62402 | 35932 ft | 465 kts | 251° |
| 2026-05-08 21:34 | 51.42589 | -47.72363 | 35923 ft | 465 kts | 251° |
| 2026-05-08 21:34 | 51.40826 | -47.82364 | 35923 ft | 465 kts | 251° |
| 2026-05-08 21:35 | 51.39067 | -47.92292 | 35913 ft | 465 kts | 250° |
| 2026-05-08 21:35 | 51.37288 | -48.02274 | 35920 ft | 465 kts | 250° |
| 2026-05-08 21:36 | 51.35511 | -48.12187 | 35917 ft | 465 kts | 250° |
| 2026-05-08 21:36 | 51.33715 | -48.22156 | 35912 ft | 465 kts | 250° |
| 2026-05-08 21:37 | 51.31929 | -48.32021 | 35901 ft | 463 kts | 250° |
| 2026-05-08 21:37 | 51.30120 | -48.41948 | 35896 ft | 462 kts | 250° |
| 2026-05-08 21:38 | 51.28327 | -48.51739 | 35901 ft | 461 kts | 249° |
| 2026-05-08 21:38 | 51.26512 | -48.61596 | 35882 ft | 460 kts | 249° |
| 2026-05-08 21:39 | 51.24705 | -48.71356 | 35883 ft | 460 kts | 249° |
| 2026-05-08 21:39 | 51.22889 | -48.81118 | 35885 ft | 460 kts | 249° |
| 2026-05-08 21:40 | 51.21050 | -48.90944 | 35879 ft | 460 kts | 249° |
| 2026-05-08 21:40 | 51.19219 | -49.00682 | 35872 ft | 461 kts | 249° |
| 2026-05-08 21:41 | 51.16435 | -49.15395 | 35900 ft | 461 kts | 249° |
| 2026-05-08 21:41 | 51.14576 | -49.25152 | 35866 ft | 459 kts | 248° |
| 2026-05-08 21:42 | 51.12726 | -49.34817 | 35846 ft | 457 kts | 248° |
| 2026-05-08 21:42 | 51.10861 | -49.44510 | 35849 ft | 455 kts | 248° |
| 2026-05-08 21:43 | 51.09005 | -49.54098 | 35850 ft | 455 kts | 248° |
| 2026-05-08 21:43 | 51.07147 | -49.63657 | 35842 ft | 454 kts | 248° |
| 2026-05-08 21:44 | 51.05269 | -49.73273 | 35828 ft | 454 kts | 248° |
| 2026-05-08 21:44 | 51.03385 | -49.82866 | 35828 ft | 454 kts | 248° |
| 2026-05-08 21:45 | 51.01500 | -49.92428 | 35825 ft | 455 kts | 248° |
| 2026-05-08 21:45 | 50.99566 | -50.01936 | 35834 ft | 453 kts | 245° |
| 2026-05-08 21:46 | 50.97331 | -50.11298 | 35842 ft | 452 kts | 244° |
| 2026-05-08 21:46 | 50.95079 | -50.20543 | 35812 ft | 451 kts | 244° |
| 2026-05-08 21:47 | 50.92820 | -50.29835 | 35801 ft | 450 kts | 244° |
| 2026-05-08 21:47 | 50.90570 | -50.39096 | 35803 ft | 449 kts | 244° |
| 2026-05-08 21:48 | 50.88331 | -50.48288 | 35800 ft | 449 kts | 243° |
| 2026-05-08 21:48 | 50.86070 | -50.57528 | 35788 ft | 449 kts | 243° |
| 2026-05-08 21:49 | 50.83803 | -50.66750 | 35834 ft | 451 kts | 243° |
| 2026-05-08 21:49 | 50.82691 | -50.71272 | 36588 ft | 436 kts | 243° |
| 2026-05-08 21:49 | 50.81607 | -50.75690 | 37430 ft | 425 kts | 243° |
| 2026-05-08 21:50 | 50.80542 | -50.80007 | 37798 ft | 420 kts | 243° |
| 2026-05-08 21:50 | 50.79467 | -50.84334 | 37769 ft | 424 kts | 243° |
| 2026-05-08 21:50 | 50.77278 | -50.93095 | 37781 ft | 431 kts | 243° |
| 2026-05-08 21:51 | 50.75082 | -51.01879 | 37766 ft | 433 kts | 243° |
| 2026-05-08 21:51 | 50.72860 | -51.10749 | 37761 ft | 434 kts | 243° |
| 2026-05-08 21:52 | 50.70636 | -51.19594 | 37759 ft | 435 kts | 242° |
| 2026-05-08 21:52 | 50.68401 | -51.28440 | 37753 ft | 434 kts | 242° |
| 2026-05-08 21:53 | 50.66155 | -51.37295 | 37760 ft | 434 kts | 241° |
| 2026-05-08 21:53 | 50.63918 | -51.46080 | 37744 ft | 433 kts | 241° |
| 2026-05-08 21:54 | 50.62033 | -51.53457 | 37733 ft | 433 kts | 241° |
| 2026-05-08 21:54 | 50.59794 | -51.62188 | 37734 ft | 432 kts | 241° |
| 2026-05-08 21:55 | 50.57536 | -51.70961 | 37734 ft | 432 kts | 241° |
| 2026-05-08 21:56 | 50.54150 | -51.84052 | 37734 ft | 432 kts | 241° |
| 2026-05-08 21:56 | 50.51873 | -51.92817 | 37721 ft | 432 kts | 240° |
| 2026-05-08 21:57 | 50.49817 | -52.01676 | 37722 ft | 437 kts | 246° |
| 2026-05-08 21:57 | 50.48524 | -52.11126 | 37775 ft | 442 kts | 250° |
| 2026-05-08 21:58 | 50.47324 | -52.20562 | 37712 ft | 443 kts | 250° |
| 2026-05-08 21:58 | 50.46095 | -52.30058 | 37707 ft | 443 kts | 250° |
| 2026-05-08 21:59 | 50.44849 | -52.39550 | 37701 ft | 444 kts | 249° |
| 2026-05-08 21:59 | 50.43590 | -52.49059 | 37693 ft | 445 kts | 249° |
| 2026-05-08 22:00 | 50.42332 | -52.58509 | 37689 ft | 445 kts | 249° |
| 2026-05-08 22:00 | 50.41058 | -52.68020 | 37695 ft | 445 kts | 249° |
| 2026-05-08 22:01 | 50.39785 | -52.77454 | 37684 ft | 445 kts | 249° |
| 2026-05-08 22:01 | 50.38495 | -52.86951 | 37715 ft | 446 kts | 248° |
| 2026-05-08 22:02 | 50.37192 | -52.96474 | 37687 ft | 446 kts | 248° |
| 2026-05-08 22:02 | 50.35885 | -53.05973 | 37678 ft | 446 kts | 248° |
| 2026-05-08 22:03 | 50.34577 | -53.15427 | 37674 ft | 445 kts | 248° |
| 2026-05-08 22:03 | 50.33251 | -53.24938 | 37671 ft | 445 kts | 248° |
| 2026-05-08 22:04 | 50.31931 | -53.34347 | 37663 ft | 445 kts | 248° |
| 2026-05-08 22:04 | 50.30596 | -53.43804 | 37675 ft | 445 kts | 248° |
| 2026-05-08 22:05 | 50.29260 | -53.53210 | 37672 ft | 445 kts | 248° |
| 2026-05-08 22:05 | 50.27909 | -53.62659 | 37670 ft | 444 kts | 247° |
| 2026-05-08 22:06 | 50.26557 | -53.72073 | 37662 ft | 442 kts | 247° |
| 2026-05-08 22:06 | 50.25210 | -53.81388 | 37663 ft | 440 kts | 247° |
| 2026-05-08 22:07 | 50.23854 | -53.90701 | 37665 ft | 439 kts | 247° |
| 2026-05-08 22:07 | 50.22497 | -53.99956 | 37661 ft | 438 kts | 247° |
| 2026-05-08 22:08 | 50.21123 | -54.09272 | 37661 ft | 438 kts | 247° |
| 2026-05-08 22:08 | 50.19753 | -54.18511 | 37664 ft | 439 kts | 247° |
| 2026-05-08 22:09 | 50.18363 | -54.27827 | 37665 ft | 439 kts | 247° |
| 2026-05-08 22:09 | 50.16973 | -54.37100 | 37660 ft | 439 kts | 247° |
| 2026-05-08 22:10 | 50.15585 | -54.46310 | 37666 ft | 437 kts | 246° |
| 2026-05-08 22:10 | 50.14187 | -54.55533 | 37707 ft | 435 kts | 246° |
| 2026-05-08 22:11 | 50.12783 | -54.64736 | 37670 ft | 433 kts | 246° |
| 2026-05-08 22:11 | 50.11389 | -54.73815 | 37663 ft | 431 kts | 246° |
| 2026-05-08 22:12 | 50.09988 | -54.82886 | 37664 ft | 429 kts | 246° |
| 2026-05-08 22:12 | 50.08593 | -54.91865 | 37664 ft | 429 kts | 246° |
| 2026-05-08 22:13 | 50.07183 | -55.00885 | 37740 ft | 429 kts | 246° |
| 2026-05-08 22:13 | 50.05762 | -55.09929 | 37688 ft | 430 kts | 245° |
| 2026-05-08 22:14 | 50.04331 | -55.18988 | 37674 ft | 432 kts | 245° |
| 2026-05-08 22:14 | 50.02890 | -55.28065 | 37671 ft | 433 kts | 245° |
| 2026-05-08 22:15 | 50.01447 | -55.37106 | 37680 ft | 433 kts | 245° |
| 2026-05-08 22:15 | 49.99979 | -55.46259 | 37682 ft | 434 kts | 245° |
| 2026-05-08 22:16 | 49.98521 | -55.55293 | 37678 ft | 434 kts | 245° |
| 2026-05-08 22:16 | 49.97044 | -55.64399 | 37710 ft | 434 kts | 245° |
| 2026-05-08 22:17 | 49.95558 | -55.73515 | 37684 ft | 437 kts | 245° |
| 2026-05-08 22:17 | 49.94052 | -55.82683 | 37683 ft | 438 kts | 245° |
| 2026-05-08 22:18 | 49.92546 | -55.91816 | 37687 ft | 439 kts | 245° |
| 2026-05-08 22:18 | 49.91022 | -56.01010 | 37682 ft | 440 kts | 245° |
| 2026-05-08 22:19 | 49.89489 | -56.10211 | 37682 ft | 441 kts | 245° |
| 2026-05-08 22:19 | 49.87949 | -56.19408 | 37710 ft | 441 kts | 245° |
| 2026-05-08 22:20 | 49.86396 | -56.28624 | 37692 ft | 441 kts | 245° |
| 2026-05-08 22:20 | 49.84837 | -56.37831 | 37674 ft | 442 kts | 245° |
| 2026-05-08 22:21 | 49.83265 | -56.47058 | 37697 ft | 443 kts | 245° |
| 2026-05-08 22:21 | 49.81683 | -56.56294 | 37679 ft | 444 kts | 245° |
| 2026-05-08 22:22 | 49.80104 | -56.65475 | 37678 ft | 444 kts | 245° |
| 2026-05-08 22:22 | 49.78507 | -56.74715 | 37699 ft | 444 kts | 245° |
| 2026-05-08 22:23 | 49.76900 | -56.83955 | 37676 ft | 443 kts | 245° |
| 2026-05-08 22:23 | 49.75292 | -56.93158 | 37674 ft | 443 kts | 245° |
| 2026-05-08 22:24 | 49.73687 | -57.02288 | 37676 ft | 442 kts | 245° |
| 2026-05-08 22:24 | 49.72070 | -57.11445 | 37672 ft | 441 kts | 245° |
| 2026-05-08 22:25 | 49.70442 | -57.20605 | 37675 ft | 443 kts | 245° |
| 2026-05-08 22:25 | 49.68803 | -57.29788 | 37663 ft | 444 kts | 245° |
| 2026-05-08 22:26 | 49.67155 | -57.38978 | 37661 ft | 444 kts | 245° |
| 2026-05-08 22:26 | 49.65507 | -57.48114 | 37658 ft | 444 kts | 245° |
| 2026-05-08 22:27 | 49.63845 | -57.57295 | 37687 ft | 444 kts | 245° |
| 2026-05-08 22:27 | 49.62175 | -57.66468 | 37664 ft | 445 kts | 245° |
| 2026-05-08 22:28 | 49.60495 | -57.75655 | 37667 ft | 445 kts | 244° |
| 2026-05-08 22:28 | 49.58811 | -57.84816 | 37743 ft | 445 kts | 245° |
| 2026-05-08 22:29 | 49.57093 | -57.94070 | 37704 ft | 452 kts | 245° |
| 2026-05-08 22:29 | 49.55358 | -58.03401 | 37693 ft | 454 kts | 245° |
| 2026-05-08 22:30 | 49.53619 | -58.12728 | 37696 ft | 455 kts | 245° |
| 2026-05-08 22:30 | 49.51860 | -58.22116 | 37696 ft | 455 kts | 245° |
| 2026-05-08 22:31 | 49.50098 | -58.31469 | 37730 ft | 455 kts | 245° |
| 2026-05-08 22:31 | 49.48325 | -58.40821 | 37702 ft | 455 kts | 245° |
| 2026-05-08 22:32 | 49.46556 | -58.50107 | 37695 ft | 455 kts | 245° |
| 2026-05-08 22:32 | 49.44763 | -58.59466 | 37701 ft | 457 kts | 245° |
| 2026-05-08 22:33 | 49.42960 | -58.68837 | 37702 ft | 457 kts | 245° |
| 2026-05-08 22:33 | 49.41146 | -58.78218 | 37699 ft | 458 kts | 245° |
| 2026-05-08 22:34 | 49.39326 | -58.87592 | 37711 ft | 460 kts | 245° |
| 2026-05-08 22:34 | 49.37485 | -58.97012 | 37705 ft | 461 kts | 245° |
| 2026-05-08 22:35 | 49.35643 | -59.06401 | 37706 ft | 463 kts | 245° |
| 2026-05-08 22:35 | 49.33777 | -59.15866 | 37700 ft | 464 kts | 245° |
| 2026-05-08 22:36 | 49.31898 | -59.25350 | 37719 ft | 466 kts | 246° |
| 2026-05-08 22:36 | 49.30004 | -59.34860 | 37713 ft | 466 kts | 246° |
| 2026-05-08 22:37 | 49.28100 | -59.44380 | 37713 ft | 467 kts | 246° |
| 2026-05-08 22:37 | 49.26202 | -59.53826 | 37702 ft | 467 kts | 246° |
| 2026-05-08 22:38 | 49.24282 | -59.63330 | 37699 ft | 467 kts | 245° |
| 2026-05-08 22:38 | 49.22355 | -59.72826 | 37699 ft | 467 kts | 245° |
| 2026-05-08 22:39 | 49.20422 | -59.82303 | 37714 ft | 466 kts | 245° |
| 2026-05-08 22:39 | 49.18491 | -59.91722 | 37730 ft | 468 kts | 246° |
| 2026-05-08 22:40 | 49.16530 | -60.01238 | 37711 ft | 469 kts | 246° |
| 2026-05-08 22:40 | 49.14557 | -60.10773 | 37710 ft | 470 kts | 246° |
| 2026-05-08 22:41 | 49.12914 | -60.18681 | 37713 ft | 470 kts | 246° |
| 2026-05-08 22:41 | 49.10603 | -60.29751 | 37712 ft | 471 kts | 246° |
| 2026-05-08 22:42 | 49.08607 | -60.39262 | 37727 ft | 471 kts | 246° |
| 2026-05-08 22:42 | 49.06935 | -60.47194 | 37715 ft | 472 kts | 246° |
| 2026-05-08 22:43 | 49.04918 | -60.56721 | 37754 ft | 473 kts | 246° |
| 2026-05-08 22:43 | 49.02884 | -60.66281 | 37725 ft | 474 kts | 246° |
| 2026-05-08 22:44 | 49.00841 | -60.75848 | 37728 ft | 474 kts | 246° |
| 2026-05-08 22:44 | 48.98800 | -60.85355 | 37722 ft | 475 kts | 246° |
| 2026-05-08 22:45 | 48.96736 | -60.94923 | 37731 ft | 475 kts | 246° |
| 2026-05-08 22:45 | 48.94663 | -61.04487 | 37723 ft | 475 kts | 246° |
| 2026-05-08 22:46 | 48.92597 | -61.13978 | 37722 ft | 475 kts | 246° |
| 2026-05-08 22:46 | 48.90617 | -61.23035 | 37744 ft | 476 kts | 246° |
| 2026-05-08 22:47 | 48.88527 | -61.32548 | 37735 ft | 477 kts | 246° |
| 2026-05-08 22:47 | 48.86414 | -61.42123 | 37740 ft | 477 kts | 246° |
| 2026-05-08 22:48 | 48.84289 | -61.51706 | 37735 ft | 478 kts | 246° |
| 2026-05-08 22:48 | 48.82169 | -61.61228 | 37728 ft | 478 kts | 246° |
| 2026-05-08 22:49 | 48.80025 | -61.70812 | 37728 ft | 479 kts | 246° |
| 2026-05-08 22:49 | 48.76805 | -61.85120 | 37728 ft | 479 kts | 246° |
| 2026-05-08 22:50 | 48.74641 | -61.94683 | 37741 ft | 480 kts | 247° |
| 2026-05-08 22:50 | 48.72477 | -62.04205 | 37739 ft | 480 kts | 247° |
| 2026-05-08 22:51 | 48.70285 | -62.13806 | 37732 ft | 481 kts | 247° |
| 2026-05-08 22:51 | 48.68091 | -62.23376 | 37731 ft | 481 kts | 247° |
| 2026-05-08 22:52 | 48.65899 | -62.32889 | 37735 ft | 481 kts | 246° |
| 2026-05-08 22:52 | 48.63686 | -62.42453 | 37738 ft | 481 kts | 247° |
| 2026-05-08 22:53 | 48.61475 | -62.51963 | 37742 ft | 481 kts | 247° |
| 2026-05-08 22:53 | 48.59255 | -62.61475 | 37744 ft | 481 kts | 246° |
| 2026-05-08 22:54 | 48.57014 | -62.71032 | 37748 ft | 481 kts | 246° |
| 2026-05-08 22:54 | 48.54784 | -62.80502 | 37748 ft | 481 kts | 246° |
| 2026-05-08 22:55 | 48.52532 | -62.90021 | 37759 ft | 481 kts | 247° |
| 2026-05-08 22:55 | 48.50271 | -62.99535 | 37761 ft | 482 kts | 246° |
| 2026-05-08 22:56 | 48.48000 | -63.09053 | 37761 ft | 482 kts | 246° |
| 2026-05-08 22:56 | 48.45729 | -63.18530 | 37771 ft | 483 kts | 247° |
| 2026-05-08 22:57 | 48.43439 | -63.28045 | 37761 ft | 483 kts | 247° |
| 2026-05-08 22:57 | 48.41137 | -63.37568 | 37756 ft | 484 kts | 247° |
| 2026-05-08 22:58 | 48.38837 | -63.47038 | 37762 ft | 484 kts | 247° |
| 2026-05-08 22:58 | 48.36529 | -63.56507 | 37761 ft | 484 kts | 247° |
| 2026-05-08 22:59 | 48.34197 | -63.66031 | 37761 ft | 484 kts | 247° |
| 2026-05-08 22:59 | 48.31870 | -63.75493 | 37766 ft | 484 kts | 246° |
| 2026-05-08 23:00 | 48.29521 | -63.85003 | 37772 ft | 485 kts | 247° |
| 2026-05-08 23:00 | 48.27162 | -63.94516 | 37773 ft | 485 kts | 247° |
| 2026-05-08 23:01 | 48.24795 | -64.04019 | 37766 ft | 486 kts | 247° |
| 2026-05-08 23:01 | 48.22429 | -64.13477 | 37767 ft | 486 kts | 247° |
| 2026-05-08 23:02 | 48.20043 | -64.22979 | 37761 ft | 486 kts | 247° |
| 2026-05-08 23:02 | 48.17663 | -64.32413 | 37765 ft | 486 kts | 247° |
| 2026-05-08 23:03 | 48.15257 | -64.41912 | 37762 ft | 486 kts | 247° |
| 2026-05-08 23:03 | 48.12862 | -64.51331 | 37768 ft | 487 kts | 247° |
| 2026-05-08 23:04 | 48.10440 | -64.60813 | 37766 ft | 487 kts | 247° |
| 2026-05-08 23:04 | 48.08008 | -64.70295 | 37770 ft | 487 kts | 247° |
| 2026-05-08 23:05 | 48.05587 | -64.79697 | 37770 ft | 487 kts | 247° |
| 2026-05-08 23:05 | 48.03151 | -64.89115 | 37773 ft | 487 kts | 247° |
| 2026-05-08 23:06 | 48.00696 | -64.98570 | 37773 ft | 487 kts | 247° |
| 2026-05-08 23:06 | 47.98232 | -65.08023 | 37787 ft | 487 kts | 247° |
| 2026-05-08 23:07 | 47.95777 | -65.17401 | 37756 ft | 488 kts | 247° |
| 2026-05-08 23:07 | 47.93298 | -65.26829 | 37752 ft | 488 kts | 247° |
| 2026-05-08 23:08 | 47.90805 | -65.36274 | 37753 ft | 488 kts | 247° |
| 2026-05-08 23:08 | 47.88319 | -65.45658 | 37743 ft | 488 kts | 247° |
| 2026-05-08 23:09 | 47.85815 | -65.55068 | 37742 ft | 488 kts | 247° |
| 2026-05-08 23:09 | 47.83322 | -65.64400 | 37747 ft | 488 kts | 247° |
| 2026-05-08 23:10 | 47.80799 | -65.73807 | 37754 ft | 489 kts | 247° |
| 2026-05-08 23:10 | 47.78271 | -65.83194 | 37753 ft | 489 kts | 247° |
| 2026-05-08 23:11 | 47.75744 | -65.92543 | 37757 ft | 488 kts | 247° |
| 2026-05-08 23:11 | 47.73202 | -66.01907 | 37763 ft | 488 kts | 247° |
| 2026-05-08 23:12 | 47.70650 | -66.11268 | 37766 ft | 488 kts | 247° |
| 2026-05-08 23:12 | 47.68106 | -66.20567 | 37768 ft | 488 kts | 247° |
| 2026-05-08 23:13 | 47.65538 | -66.29916 | 37791 ft | 488 kts | 247° |
| 2026-05-08 23:13 | 47.62964 | -66.39247 | 37773 ft | 488 kts | 247° |
| 2026-05-08 23:14 | 47.60402 | -66.48505 | 37779 ft | 487 kts | 247° |
| 2026-05-08 23:14 | 47.57816 | -66.57813 | 37775 ft | 487 kts | 247° |
| 2026-05-08 23:15 | 47.55227 | -66.67092 | 37785 ft | 487 kts | 247° |
| 2026-05-08 23:15 | 47.52650 | -66.76292 | 37781 ft | 486 kts | 247° |
| 2026-05-08 23:16 | 47.50051 | -66.85538 | 37784 ft | 486 kts | 247° |
| 2026-05-08 23:16 | 47.47443 | -66.94780 | 37793 ft | 486 kts | 247° |
| 2026-05-08 23:17 | 47.44845 | -67.03951 | 37781 ft | 486 kts | 247° |
| 2026-05-08 23:17 | 47.42217 | -67.13195 | 37785 ft | 486 kts | 247° |
| 2026-05-08 23:18 | 47.39608 | -67.22339 | 37784 ft | 486 kts | 247° |
| 2026-05-08 23:18 | 47.36931 | -67.31495 | 37785 ft | 486 kts | 244° |
| 2026-05-08 23:19 | 47.33751 | -67.40303 | 37796 ft | 485 kts | 242° |
| 2026-05-08 23:19 | 47.30525 | -67.49003 | 37806 ft | 486 kts | 242° |
| 2026-05-08 23:20 | 47.27287 | -67.57759 | 37786 ft | 486 kts | 242° |
| 2026-05-08 23:20 | 47.24061 | -67.66510 | 37797 ft | 486 kts | 242° |
| 2026-05-08 23:21 | 47.20829 | -67.75267 | 37793 ft | 486 kts | 242° |
| 2026-05-08 23:21 | 47.17614 | -67.83945 | 37795 ft | 486 kts | 242° |
| 2026-05-08 23:22 | 47.14370 | -67.92673 | 37796 ft | 486 kts | 242° |
| 2026-05-08 23:22 | 47.11122 | -68.01381 | 37795 ft | 486 kts | 242° |
| 2026-05-08 23:23 | 47.07868 | -68.10077 | 37799 ft | 485 kts | 242° |
| 2026-05-08 23:23 | 47.04627 | -68.18710 | 37809 ft | 486 kts | 242° |
| 2026-05-08 23:24 | 47.01358 | -68.27389 | 37800 ft | 486 kts | 242° |
| 2026-05-08 23:24 | 46.98079 | -68.36067 | 37790 ft | 486 kts | 242° |
| 2026-05-08 23:25 | 46.94821 | -68.44662 | 37799 ft | 485 kts | 242° |
| 2026-05-08 23:25 | 46.91541 | -68.53288 | 37803 ft | 485 kts | 242° |
| 2026-05-08 23:26 | 46.88251 | -68.61911 | 37799 ft | 485 kts | 242° |
| 2026-05-08 23:26 | 46.84962 | -68.70506 | 37809 ft | 485 kts | 242° |
| 2026-05-08 23:27 | 46.81679 | -68.79057 | 37812 ft | 485 kts | 242° |
| 2026-05-08 23:27 | 46.78372 | -68.87643 | 37817 ft | 485 kts | 242° |
| 2026-05-08 23:28 | 46.75078 | -68.96170 | 37823 ft | 485 kts | 242° |
| 2026-05-08 23:28 | 46.71758 | -69.04737 | 37822 ft | 485 kts | 242° |
| 2026-05-08 23:29 | 46.68434 | -69.13284 | 37821 ft | 484 kts | 242° |
| 2026-05-08 23:29 | 46.65102 | -69.21829 | 37828 ft | 484 kts | 242° |
| 2026-05-08 23:30 | 46.61769 | -69.30348 | 37838 ft | 484 kts | 242° |
| 2026-05-08 23:30 | 46.58425 | -69.38867 | 37848 ft | 484 kts | 242° |
| 2026-05-08 23:31 | 46.55100 | -69.47314 | 37826 ft | 484 kts | 242° |
| 2026-05-08 23:31 | 46.51745 | -69.55807 | 37844 ft | 484 kts | 242° |
| 2026-05-08 23:32 | 46.48390 | -69.64276 | 37838 ft | 483 kts | 242° |
| 2026-05-08 23:32 | 46.45596 | -69.71309 | 37846 ft | 483 kts | 242° |
| 2026-05-08 23:33 | 46.42229 | -69.79762 | 37840 ft | 483 kts | 242° |
| 2026-05-08 23:33 | 46.38880 | -69.88143 | 37844 ft | 483 kts | 242° |
| 2026-05-08 23:34 | 46.35501 | -69.96558 | 37848 ft | 482 kts | 241° |
| 2026-05-08 23:34 | 46.32139 | -70.04922 | 37846 ft | 482 kts | 242° |
| 2026-05-08 23:35 | 46.28762 | -70.13308 | 37859 ft | 482 kts | 241° |
| 2026-05-08 23:35 | 46.25375 | -70.21683 | 37846 ft | 481 kts | 242° |
| 2026-05-08 23:36 | 46.22005 | -70.29988 | 37855 ft | 481 kts | 242° |
| 2026-05-08 23:36 | 46.18613 | -70.38320 | 37857 ft | 480 kts | 241° |
| 2026-05-08 23:37 | 46.15233 | -70.46603 | 37859 ft | 480 kts | 241° |
| 2026-05-08 23:37 | 46.11837 | -70.54898 | 37839 ft | 480 kts | 241° |
| 2026-05-08 23:38 | 46.08433 | -70.63190 | 37864 ft | 480 kts | 242° |
| 2026-05-08 23:38 | 46.05045 | -70.71419 | 37858 ft | 479 kts | 241° |
| 2026-05-08 23:39 | 46.01659 | -70.79703 | 37862 ft | 478 kts | 244° |
| 2026-05-08 23:39 | 45.99127 | -70.88498 | 37878 ft | 475 kts | 253° |
| 2026-05-08 23:40 | 45.97566 | -70.97650 | 37871 ft | 472 kts | 261° |
| 2026-05-08 23:40 | 45.96453 | -71.06983 | 37871 ft | 472 kts | 261° |
| 2026-05-08 23:41 | 45.95353 | -71.16134 | 37647 ft | 458 kts | 261° |
| 2026-05-08 23:41 | 45.94800 | -71.20643 | 36999 ft | 455 kts | 261° |
| 2026-05-08 23:41 | 45.94247 | -71.25108 | 36321 ft | 452 kts | 261° |
| 2026-05-08 23:42 | 45.93691 | -71.29564 | 35572 ft | 451 kts | 261° |
| 2026-05-08 23:42 | 45.93141 | -71.33949 | 34741 ft | 452 kts | 262° |
| 2026-05-08 23:42 | 45.92580 | -71.38408 | 33890 ft | 453 kts | 262° |
| 2026-05-08 23:42 | 45.92016 | -71.42873 | 32832 ft | 454 kts | 262° |
| 2026-05-08 23:43 | 45.91449 | -71.47342 | 31855 ft | 453 kts | 262° |
| 2026-05-08 23:43 | 45.90891 | -71.51725 | 31036 ft | 449 kts | 262° |
| 2026-05-08 23:43 | 45.90332 | -71.56103 | 30361 ft | 442 kts | 262° |
| 2026-05-08 23:43 | 45.89778 | -71.60420 | 29618 ft | 435 kts | 262° |
| 2026-05-08 23:44 | 45.89233 | -71.64666 | 28850 ft | 429 kts | 263° |
| 2026-05-08 23:44 | 45.88694 | -71.68850 | 28195 ft | 422 kts | 262° |
| 2026-05-08 23:44 | 45.88163 | -71.72969 | 27533 ft | 415 kts | 262° |
| 2026-05-08 23:44 | 45.87645 | -71.76968 | 26906 ft | 410 kts | 262° |
| 2026-05-08 23:45 | 45.87125 | -71.80979 | 26269 ft | 406 kts | 262° |
| 2026-05-08 23:45 | 45.86609 | -71.84948 | 25631 ft | 402 kts | 262° |
| 2026-05-08 23:45 | 45.86096 | -71.88877 | 25015 ft | 399 kts | 262° |
| 2026-05-08 23:45 | 45.85585 | -71.92789 | 24393 ft | 396 kts | 261° |
| 2026-05-08 23:46 | 45.85082 | -71.96624 | 23797 ft | 394 kts | 261° |
| 2026-05-08 23:46 | 45.84575 | -72.00478 | 23147 ft | 392 kts | 261° |
| 2026-05-08 23:46 | 45.84069 | -72.04307 | 22464 ft | 389 kts | 261° |
| 2026-05-08 23:46 | 45.83563 | -72.08132 | 21854 ft | 385 kts | 261° |
| 2026-05-08 23:47 | 45.83070 | -72.11847 | 21260 ft | 382 kts | 261° |
| 2026-05-08 23:47 | 45.82573 | -72.15579 | 20669 ft | 379 kts | 261° |
| 2026-05-08 23:47 | 45.82078 | -72.19288 | 20085 ft | 376 kts | 261° |
| 2026-05-08 23:47 | 45.81587 | -72.22966 | 19509 ft | 374 kts | 260° |
| 2026-05-08 23:48 | 45.81101 | -72.26591 | 18949 ft | 372 kts | 260° |
| 2026-05-08 23:48 | 45.80612 | -72.30225 | 18376 ft | 371 kts | 260° |
| 2026-05-08 23:48 | 45.80123 | -72.33851 | 17749 ft | 369 kts | 260° |
| 2026-05-08 23:48 | 45.79637 | -72.37450 | 17136 ft | 367 kts | 260° |
| 2026-05-08 23:49 | 45.79150 | -72.41038 | 16569 ft | 364 kts | 260° |
| 2026-05-08 23:49 | 45.78667 | -72.44593 | 16004 ft | 362 kts | 260° |
| 2026-05-08 23:49 | 45.78192 | -72.48083 | 15449 ft | 360 kts | 260° |
| 2026-05-08 23:49 | 45.77711 | -72.51608 | 14906 ft | 358 kts | 260° |
| 2026-05-08 23:50 | 45.77234 | -72.55094 | 14462 ft | 353 kts | 260° |
| 2026-05-08 23:50 | 45.76762 | -72.58535 | 13948 ft | 352 kts | 260° |
| 2026-05-08 23:50 | 45.76297 | -72.61925 | 13382 ft | 351 kts | 260° |
| 2026-05-08 23:50 | 45.75824 | -72.65351 | 12814 ft | 350 kts | 259° |
| 2026-05-08 23:51 | 45.75353 | -72.68757 | 12278 ft | 347 kts | 259° |
| 2026-05-08 23:51 | 45.74884 | -72.72146 | 11738 ft | 346 kts | 259° |
| 2026-05-08 23:51 | 45.74418 | -72.75516 | 11205 ft | 344 kts | 259° |
| 2026-05-08 23:51 | 45.73953 | -72.78862 | 10861 ft | 338 kts | 259° |
| 2026-05-08 23:52 | 45.73502 | -72.82098 | 10720 ft | 326 kts | 259° |
| 2026-05-08 23:52 | 45.73071 | -72.85180 | 10554 ft | 300 kts | 259° |
| 2026-05-08 23:52 | 45.72673 | -72.88020 | 10460 ft | 286 kts | 259° |
| 2026-05-08 23:52 | 45.72290 | -72.90752 | 10338 ft | 277 kts | 259° |
| 2026-05-08 23:53 | 45.71916 | -72.93413 | 10226 ft | 269 kts | 259° |
| 2026-05-08 23:53 | 45.71552 | -72.95997 | 10116 ft | 261 kts | 259° |
| 2026-05-08 23:53 | 45.71200 | -72.98501 | 9982 ft | 254 kts | 259° |
| 2026-05-08 23:53 | 45.70851 | -73.00975 | 9671 ft | 254 kts | 259° |
| 2026-05-08 23:54 | 45.70502 | -73.03442 | 9372 ft | 253 kts | 259° |
| 2026-05-08 23:54 | 45.70152 | -73.05916 | 9066 ft | 252 kts | 259° |
| 2026-05-08 23:54 | 45.69804 | -73.08370 | 8761 ft | 250 kts | 259° |
| 2026-05-08 23:55 | 45.69119 | -73.13194 | 8167 ft | 248 kts | 259° |
| 2026-05-08 23:55 | 45.68775 | -73.15606 | 7873 ft | 247 kts | 259° |
| 2026-05-08 23:55 | 45.68431 | -73.18016 | 7574 ft | 246 kts | 259° |
| 2026-05-08 23:55 | 45.68089 | -73.20411 | 7279 ft | 246 kts | 259° |
| 2026-05-08 23:56 | 45.67747 | -73.22800 | 6978 ft | 245 kts | 259° |
| 2026-05-08 23:56 | 45.67409 | -73.25159 | 6687 ft | 244 kts | 259° |
| 2026-05-08 23:56 | 45.67068 | -73.27535 | 6410 ft | 243 kts | 259° |
| 2026-05-08 23:56 | 45.66728 | -73.29894 | 6120 ft | 242 kts | 259° |
| 2026-05-08 23:57 | 45.66389 | -73.32246 | 5809 ft | 240 kts | 258° |
| 2026-05-08 23:57 | 45.66051 | -73.34586 | 5512 ft | 239 kts | 258° |
| 2026-05-08 23:57 | 45.65720 | -73.36881 | 5229 ft | 238 kts | 258° |
| 2026-05-08 23:57 | 45.65386 | -73.39188 | 4957 ft | 236 kts | 258° |
| 2026-05-08 23:58 | 45.65053 | -73.41485 | 4674 ft | 235 kts | 258° |
| 2026-05-08 23:58 | 45.64723 | -73.43762 | 4392 ft | 234 kts | 258° |
| 2026-05-08 23:58 | 45.64393 | -73.46037 | 4108 ft | 232 kts | 258° |
| 2026-05-08 23:58 | 45.64068 | -73.48270 | 3858 ft | 230 kts | 258° |
| 2026-05-08 23:59 | 45.63744 | -73.50488 | 3599 ft | 227 kts | 258° |
| 2026-05-08 23:59 | 45.63422 | -73.52676 | 3481 ft | 220 kts | 253° |
| 2026-05-08 23:59 | 45.62739 | -73.54522 | 3352 ft | 206 kts | 231° |
| 2026-05-08 23:59 | 45.61828 | -73.55996 | 3277 ft | 190 kts | 231° |
| 2026-05-09 00:00 | 45.60968 | -73.57315 | 3186 ft | 175 kts | 228° |
| 2026-05-09 00:00 | 45.60122 | -73.58468 | 3077 ft | 162 kts | 226° |
| 2026-05-09 00:00 | 45.59287 | -73.59564 | 3031 ft | 163 kts | 226° |
| 2026-05-09 00:00 | 45.58439 | -73.60663 | 2834 ft | 164 kts | 225° |
| 2026-05-09 00:01 | 45.57644 | -73.61684 | 2608 ft | 150 kts | 226° |
| 2026-05-09 00:01 | 45.56906 | -73.62632 | 2410 ft | 135 kts | 226° |
| 2026-05-09 00:01 | 45.56204 | -73.63539 | 2256 ft | 138 kts | 226° |
| 2026-05-09 00:01 | 45.55503 | -73.64441 | 2054 ft | 134 kts | 226° |
| 2026-05-09 00:02 | 45.54810 | -73.65327 | 1861 ft | 134 kts | 224° |
| 2026-05-09 00:02 | 45.54064 | -73.66109 | 1754 ft | 135 kts | 219° |
| 2026-05-09 00:02 | 45.53377 | -73.67012 | 1571 ft | 134 kts | 229° |
| 2026-05-09 00:02 | 45.52726 | -73.67945 | 1359 ft | 132 kts | 228° |
| 2026-05-09 00:03 | 45.52066 | -73.68848 | 1126 ft | 131 kts | 226° |
| 2026-05-09 00:03 | 45.51399 | -73.69716 | 993 ft | 129 kts | 223° |
| 2026-05-09 00:03 | 45.50690 | -73.70546 | 785 ft | 134 kts | 220° |
| 2026-05-09 00:03 | 45.50002 | -73.71380 | 587 ft | 129 kts | 224° |
| 2026-05-09 00:04 | 45.49358 | -73.72241 | 421 ft | 126 kts | 218° |
| 2026-05-09 00:04 | 45.48710 | -73.73069 | 262 ft | 124 kts | 226° |
| 2026-05-09 00:04 | 45.48113 | -73.73873 | 124 ft | 109 kts | 225° |
| 2026-05-09 00:04 | 45.47634 | -73.74503 | 116 ft | 73 kts | 221° |
| 2026-05-09 00:05 | 45.47381 | -73.74832 | 120 ft | 39 kts | 223° |
| 2026-05-09 00:05 | 45.47187 | -73.75090 | 119 ft | 36 kts | 222° |
| 2026-05-09 00:05 | 45.47006 | -73.75325 | 116 ft | 34 kts | 223° |
| 2026-05-09 00:05 | 45.46833 | -73.75525 | 117 ft | 30 kts | 210° |
| 2026-05-09 00:06 | 45.46644 | -73.75615 | 118 ft | 28 kts | 194° |
| 2026-05-09 00:06 | 45.46455 | -73.75677 | 119 ft | 24 kts | 192° |
| 2026-05-09 00:06 | 45.46292 | -73.75723 | 117 ft | 24 kts | 187° |
| 2026-05-09 00:06 | 45.46187 | -73.75724 | 118 ft | 5 kts | 176° |
| 2026-05-09 00:07 | 45.46151 | -73.75711 | 117 ft | 6 kts | 146° |
| 2026-05-09 00:07 | 45.46121 | -73.75672 | 119 ft | 6 kts | 141° |
| 2026-05-09 00:07 | 45.46080 | -73.75645 | 117 ft | 7 kts | 170° |
| 2026-05-09 00:07 | 45.46031 | -73.75639 | 118 ft | 7 kts | 177° |
| 2026-05-09 00:08 | 45.46007 | -73.75637 | 119 ft | 1 kts | 176° |
| 2026-05-09 00:08 | 45.45997 | -73.75636 | 119 ft | 2 kts | 176° |
| 2026-05-09 00:08 | 45.45980 | -73.75635 | 116 ft | 3 kts | 177° |
| 2026-05-09 00:08 | 45.45979 | -73.75635 | 116 ft | 0 kts | 177° |